Time,TemperatureF,DewpointF,PressureIn,WindDirection,WindDirectionDegrees,WindSpeedMPH,WindSpeedGustMPH,Humidity,HourlyPrecipIn,Conditions,Clouds,dailyrainin,SoftwareType,DateUTC
2013-01-13 00:00:00,57.7,56.9,30.08,SW,216,0.0,0.0,97,0.00,BKN,,0.00,WeatherDisplay:10.37,2013-01-13 05:00:00,
2013-01-13 00:01:00,57.8,57.0,30.08,SW,217,0.0,0.0,97,0.00,BKN,,0.00,WeatherDisplay:10.37,2013-01-13 05:01:00,
2013-01-13 00:02:00,57.8,57.0,30.08,SW,217,0.0,0.0,97,0.00,BKN,,0.00,WeatherDisplay:10.37,2013-01-13 05:02:00,
2013-01-13 00:05:00,57.9,57.1,30.08,SW,217,0.0,0.0,97,0.00,BKN,,0.00,WeatherDisplay:10.37,2013-01-13 05:05:00,
2013-01-13 00:06:00,57.9,57.1,30.07,SW,217,0.0,0.0,97,0.00,BKN,,0.00,WeatherDisplay:10.37,2013-01-13 05:06:00,
2013-01-13 00:07:00,57.8,57.0,30.07,SW,217,0.0,0.0,97,0.00,BKN,,0.00,WeatherDisplay:10.37,2013-01-13 05:07:00,
2013-01-13 00:10:00,57.8,57.0,30.08,SW,217,0.0,0.0,97,0.00,BKN,,0.00,WeatherDisplay:10.37,2013-01-13 05:10:00,
2013-01-13 00:11:00,57.8,57.0,30.08,SW,217,0.0,0.0,97,0.00,BKN,,0.00,WeatherDisplay:10.37,2013-01-13 05:11:00,
2013-01-13 00:12:00,57.8,57.0,30.08,SW,217,0.0,0.0,97,0.00,BKN,,0.00,WeatherDisplay:10.37,2013-01-13 05:12:00,
2013-01-13 00:16:00,57.7,56.9,30.07,SW,216,0.0,0.0,97,0.00,BKN,,0.00,WeatherDisplay:10.37,2013-01-13 05:16:00,
2013-01-13 00:17:00,57.7,56.9,30.07,SW,217,0.0,0.0,97,0.00,BKN,,0.00,WeatherDisplay:10.37,2013-01-13 05:17:00,
2013-01-13 00:21:00,57.7,56.9,30.07,SW,217,0.0,0.0,97,0.00,BKN,,0.00,WeatherDisplay:10.37,2013-01-13 05:21:00,
2013-01-13 00:23:00,57.7,56.9,30.07,SW,217,0.0,0.0,97,0.00,BKN,,0.00,WeatherDisplay:10.37,2013-01-13 05:23:00,
2013-01-13 00:26:00,57.6,56.5,30.07,SW,217,0.0,0.0,96,0.00,BKN,,0.00,WeatherDisplay:10.37,2013-01-13 05:26:00,
2013-01-13 00:28:00,57.5,56.4,30.07,SW,217,0.0,0.0,96,0.00,BKN,,0.00,WeatherDisplay:10.37,2013-01-13 05:28:00,
2013-01-13 00:31:00,57.5,56.4,30.07,SW,217,0.0,0.0,96,0.00,BKN,,0.00,WeatherDisplay:10.37,2013-01-13 05:31:00,
2013-01-13 00:33:00,57.5,56.7,30.07,SW,216,0.0,0.0,97,0.00,BKN,,0.00,WeatherDisplay:10.37,2013-01-13 05:33:00,
2013-01-13 00:36:00,57.5,56.7,30.07,SW,217,0.0,0.0,97,0.00,BKN,,0.00,WeatherDisplay:10.37,2013-01-13 05:36:00,
2013-01-13 00:38:00,57.6,56.8,30.07,SW,217,0.0,0.0,97,0.00,BKN,,0.00,WeatherDisplay:10.37,2013-01-13 05:38:00,
2013-01-13 00:39:00,57.6,56.8,30.07,SW,216,0.0,0.0,97,0.00,BKN,,0.00,WeatherDisplay:10.37,2013-01-13 05:39:00,
2013-01-13 00:41:00,57.6,56.8,30.07,SW,217,0.0,0.0,97,0.00,BKN,,0.00,WeatherDisplay:10.37,2013-01-13 05:41:00,
2013-01-13 00:42:00,57.6,56.8,30.07,SW,216,0.0,0.0,97,0.00,BKN,,0.00,WeatherDisplay:10.37,2013-01-13 05:42:00,
2013-01-13 00:43:00,57.6,56.8,30.07,SW,217,0.0,0.0,97,0.00,BKN,,0.00,WeatherDisplay:10.37,2013-01-13 05:43:00,
2013-01-13 00:44:00,57.6,56.8,30.07,SW,216,0.0,0.0,97,0.00,BKN,,0.00,WeatherDisplay:10.37,2013-01-13 05:44:00,
2013-01-13 00:46:00,57.6,56.8,30.07,SW,216,0.0,0.0,97,0.00,BKN,,0.00,WeatherDisplay:10.37,2013-01-13 05:46:00,
2013-01-13 00:47:00,57.6,56.8,30.07,SW,217,0.0,0.0,97,0.00,BKN,,0.00,WeatherDisplay:10.37,2013-01-13 05:47:00,
2013-01-13 00:48:00,57.5,56.7,30.07,SW,216,0.0,0.0,97,0.00,BKN,,0.00,WeatherDisplay:10.37,2013-01-13 05:48:00,
2013-01-13 00:49:00,57.5,56.7,30.08,SW,217,0.0,0.0,97,0.00,BKN,,0.00,WeatherDisplay:10.37,2013-01-13 05:49:00,
2013-01-13 00:51:00,57.4,56.6,30.07,SW,217,0.0,0.0,97,0.00,BKN,,0.00,WeatherDisplay:10.37,2013-01-13 05:51:00,
2013-01-13 00:52:00,57.4,56.6,30.07,SW,217,0.0,0.0,97,0.00,BKN,,0.00,WeatherDisplay:10.37,2013-01-13 05:52:00,
2013-01-13 00:54:00,57.4,56.6,30.07,SW,217,0.0,0.0,97,0.00,BKN,,0.00,WeatherDisplay:10.37,2013-01-13 05:54:00,
2013-01-13 00:57:00,57.3,56.5,30.08,SW,217,0.0,0.0,97,0.00,BKN,,0.00,WeatherDisplay:10.37,2013-01-13 05:57:00,
2013-01-13 00:59:00,57.3,56.5,30.08,SW,217,0.0,0.0,97,0.00,BKN,,0.00,WeatherDisplay:10.37,2013-01-13 05:59:00,
2013-01-13 01:02:00,57.4,56.6,30.07,SW,216,0.0,0.0,97,0.00,BKN,,0.00,WeatherDisplay:10.37,2013-01-13 06:02:00,
2013-01-13 01:04:00,57.5,56.7,30.07,SW,217,0.0,0.0,97,0.00,BKN,,0.00,WeatherDisplay:10.37,2013-01-13 06:04:00,
2013-01-13 01:05:00,57.5,56.7,30.08,SW,217,0.0,0.0,97,0.00,BKN,,0.00,WeatherDisplay:10.37,2013-01-13 06:05:00,
2013-01-13 01:07:00,57.6,56.8,30.07,SW,217,0.0,0.0,97,0.00,BKN,,0.00,WeatherDisplay:10.37,2013-01-13 06:07:00,
2013-01-13 01:09:00,57.6,56.8,30.07,SW,216,0.0,0.0,97,0.00,BKN,,0.00,WeatherDisplay:10.37,2013-01-13 06:09:00,
2013-01-13 01:10:00,57.5,56.7,30.07,SW,217,0.0,0.0,97,0.00,BKN,,0.00,WeatherDisplay:10.37,2013-01-13 06:10:00,
2013-01-13 01:12:00,57.5,56.7,30.07,SW,216,0.0,0.0,97,0.00,BKN,,0.00,WeatherDisplay:10.37,2013-01-13 06:12:00,
2013-01-13 01:13:00,57.5,56.7,30.07,SW,217,0.0,0.0,97,0.00,BKN,,0.00,WeatherDisplay:10.37,2013-01-13 06:13:00,
2013-01-13 01:14:00,57.5,56.7,30.07,SW,217,0.0,0.0,97,0.00,BKN,,0.00,WeatherDisplay:10.37,2013-01-13 06:14:00,
2013-01-13 01:15:00,57.5,56.7,30.07,SW,217,0.0,0.0,97,0.00,BKN,,0.00,WeatherDisplay:10.37,2013-01-13 06:15:00,
2013-01-13 01:17:00,57.4,56.6,30.07,SW,217,0.0,0.0,97,0.00,BKN,,0.00,WeatherDisplay:10.37,2013-01-13 06:17:00,
2013-01-13 01:18:00,57.4,56.6,30.07,SW,217,0.0,0.0,97,0.00,BKN,,0.00,WeatherDisplay:10.37,2013-01-13 06:18:00,
2013-01-13 01:19:00,57.4,56.6,30.07,SW,217,0.0,0.0,97,0.00,BKN,,0.00,WeatherDisplay:10.37,2013-01-13 06:19:00,
2013-01-13 01:21:00,57.3,56.5,30.07,SW,216,0.0,0.0,97,0.00,BKN,,0.00,WeatherDisplay:10.37,2013-01-13 06:21:00,
2013-01-13 01:23:00,57.4,56.6,30.07,SW,217,0.0,0.0,97,0.00,BKN,,0.00,WeatherDisplay:10.37,2013-01-13 06:23:00,
2013-01-13 01:24:00,57.4,56.6,30.07,SW,217,0.0,0.0,97,0.00,BKN,,0.00,WeatherDisplay:10.37,2013-01-13 06:24:00,
2013-01-13 01:26:00,57.5,56.7,30.07,SW,216,0.0,0.0,97,0.00,BKN,,0.00,WeatherDisplay:10.37,2013-01-13 06:26:00,
2013-01-13 01:28:00,57.5,56.7,30.07,SW,217,0.0,0.0,97,0.00,BKN,,0.00,WeatherDisplay:10.37,2013-01-13 06:28:00,
2013-01-13 01:29:00,57.5,56.7,30.07,SW,216,0.0,0.0,97,0.00,BKN,,0.00,WeatherDisplay:10.37,2013-01-13 06:29:00,
2013-01-13 01:32:00,57.6,56.8,30.08,SW,217,0.0,0.0,97,0.00,BKN,,0.00,WeatherDisplay:10.37,2013-01-13 06:32:00,
2013-01-13 01:33:00,57.5,56.7,30.08,SW,216,0.0,0.0,97,0.00,BKN,,0.00,WeatherDisplay:10.37,2013-01-13 06:33:00,
2013-01-13 01:34:00,57.6,56.8,30.08,SW,217,0.0,0.0,97,0.00,BKN,,0.00,WeatherDisplay:10.37,2013-01-13 06:34:00,
2013-01-13 01:37:00,57.6,56.8,30.08,SW,217,0.0,0.0,97,0.00,BKN,,0.00,WeatherDisplay:10.37,2013-01-13 06:37:00,
2013-01-13 01:38:00,57.6,56.8,30.08,SW,217,0.0,0.0,97,0.00,BKN,,0.00,WeatherDisplay:10.37,2013-01-13 06:38:00,
2013-01-13 01:39:00,57.6,56.8,30.08,SW,217,0.0,0.0,97,0.00,BKN,,0.00,WeatherDisplay:10.37,2013-01-13 06:39:00,
2013-01-13 01:40:00,57.5,56.7,30.08,SW,217,0.0,0.0,97,0.00,BKN,,0.00,WeatherDisplay:10.37,2013-01-13 06:40:00,
2013-01-13 01:42:00,57.2,56.4,30.08,SW,217,0.0,0.0,97,0.00,BKN,,0.00,WeatherDisplay:10.37,2013-01-13 06:42:00,
2013-01-13 01:43:00,57.1,56.3,30.08,SW,217,0.0,0.0,97,0.00,BKN,,0.00,WeatherDisplay:10.37,2013-01-13 06:43:00,
2013-01-13 01:44:00,57.1,56.3,30.08,SW,217,0.0,0.0,97,0.00,BKN,,0.00,WeatherDisplay:10.37,2013-01-13 06:44:00,
2013-01-13 01:45:00,57.0,56.2,30.08,SW,217,0.0,0.0,97,0.00,BKN,,0.00,WeatherDisplay:10.37,2013-01-13 06:45:00,
2013-01-13 01:47:00,57.0,56.2,30.07,SW,217,0.0,0.0,97,0.00,BKN,,0.00,WeatherDisplay:10.37,2013-01-13 06:47:00,
2013-01-13 01:49:00,56.9,56.1,30.07,SW,217,0.0,0.0,97,0.00,BKN,,0.00,WeatherDisplay:10.37,2013-01-13 06:49:00,
2013-01-13 01:50:00,56.9,56.1,30.08,SW,217,0.0,0.0,97,0.00,BKN,,0.00,WeatherDisplay:10.37,2013-01-13 06:50:00,
2013-01-13 01:53:00,56.8,56.0,30.08,SW,217,0.0,0.0,97,0.00,BKN,,0.00,WeatherDisplay:10.37,2013-01-13 06:53:00,
2013-01-13 01:54:00,56.9,56.1,30.08,SW,217,0.0,0.0,97,0.00,BKN,,0.00,WeatherDisplay:10.37,2013-01-13 06:54:00,
2013-01-13 01:55:00,57.0,56.2,30.08,SW,216,0.0,0.0,97,0.00,BKN,,0.00,WeatherDisplay:10.37,2013-01-13 06:55:00,
2013-01-13 01:58:00,57.0,56.2,30.08,SW,217,0.0,0.0,97,0.00,BKN,,0.00,WeatherDisplay:10.37,2013-01-13 06:58:00,
2013-01-13 01:59:00,57.1,56.3,30.08,SW,217,0.0,0.0,97,0.00,BKN,,0.00,WeatherDisplay:10.37,2013-01-13 06:59:00,
2013-01-13 02:00:00,57.1,56.3,30.07,SW,217,0.0,0.0,97,0.00,BKN,,0.00,WeatherDisplay:10.37,2013-01-13 07:00:00,
2013-01-13 02:03:00,57.2,56.4,30.08,SW,217,0.0,0.0,97,0.00,BKN,,0.00,WeatherDisplay:10.37,2013-01-13 07:03:00,
2013-01-13 02:04:00,57.3,56.5,30.08,SW,216,0.0,0.0,97,0.00,BKN,,0.00,WeatherDisplay:10.37,2013-01-13 07:04:00,
2013-01-13 02:05:00,57.3,56.5,30.08,SW,217,0.0,0.0,97,0.00,BKN,,0.00,WeatherDisplay:10.37,2013-01-13 07:05:00,
2013-01-13 02:09:00,57.4,56.6,30.08,SW,217,0.0,0.0,97,0.00,BKN,,0.00,WeatherDisplay:10.37,2013-01-13 07:09:00,
2013-01-13 02:10:00,57.5,56.7,30.08,SW,217,0.0,0.0,97,0.00,BKN,,0.00,WeatherDisplay:10.37,2013-01-13 07:10:00,
2013-01-13 02:14:00,57.6,56.8,30.08,SW,217,0.0,0.0,97,0.00,BKN,,0.00,WeatherDisplay:10.37,2013-01-13 07:14:00,
2013-01-13 02:15:00,57.6,56.8,30.08,SW,217,0.0,0.0,97,0.00,BKN,,0.00,WeatherDisplay:10.37,2013-01-13 07:15:00,
2013-01-13 02:20:00,57.6,56.8,30.08,SW,217,0.0,0.0,97,0.00,BKN,,0.00,WeatherDisplay:10.37,2013-01-13 07:20:00,
2013-01-13 02:25:00,57.5,56.7,30.08,SW,217,0.0,0.0,97,0.00,BKN,,0.00,WeatherDisplay:10.37,2013-01-13 07:25:00,
2013-01-13 02:26:00,57.5,56.7,30.08,SW,217,0.0,0.0,97,0.00,BKN,,0.00,WeatherDisplay:10.37,2013-01-13 07:26:00,
2013-01-13 02:31:00,57.4,56.6,30.08,SW,217,0.0,0.0,97,0.00,BKN,,0.00,WeatherDisplay:10.37,2013-01-13 07:31:00,
2013-01-13 02:32:00,57.4,56.6,30.08,SW,217,0.0,0.0,97,0.00,BKN,,0.00,WeatherDisplay:10.37,2013-01-13 07:32:00,
2013-01-13 02:36:00,57.4,56.6,30.08,SW,216,0.0,0.0,97,0.00,BKN,,0.00,WeatherDisplay:10.37,2013-01-13 07:36:00,
2013-01-13 02:37:00,57.5,56.7,30.08,SW,217,0.0,0.0,97,0.00,BKN,,0.00,WeatherDisplay:10.37,2013-01-13 07:37:00,
2013-01-13 02:41:00,57.4,56.6,30.08,SW,217,0.0,0.0,97,0.00,BKN,,0.00,WeatherDisplay:10.37,2013-01-13 07:41:00,
2013-01-13 02:43:00,57.2,56.4,30.08,SW,217,0.0,0.0,97,0.00,BKN,,0.00,WeatherDisplay:10.37,2013-01-13 07:43:00,
2013-01-13 02:46:00,57.0,56.2,30.08,SW,216,0.0,0.0,97,0.00,BKN,,0.00,WeatherDisplay:10.37,2013-01-13 07:46:00,
2013-01-13 02:47:00,57.0,56.2,30.08,SW,217,0.0,0.0,97,0.00,BKN,,0.00,WeatherDisplay:10.37,2013-01-13 07:47:00,
2013-01-13 02:48:00,57.0,56.2,30.08,SW,217,0.0,0.0,97,0.00,BKN,,0.00,WeatherDisplay:10.37,2013-01-13 07:48:00,
2013-01-13 02:51:00,57.1,56.3,30.08,SW,217,0.0,0.0,97,0.00,BKN,,0.00,WeatherDisplay:10.37,2013-01-13 07:51:00,
2013-01-13 02:52:00,57.1,56.3,30.08,SW,217,0.0,0.0,97,0.00,BKN,,0.00,WeatherDisplay:10.37,2013-01-13 07:52:00,
2013-01-13 02:53:00,57.1,56.3,30.08,SW,217,0.0,0.0,97,0.00,BKN,,0.00,WeatherDisplay:10.37,2013-01-13 07:53:00,
2013-01-13 02:57:00,57.2,56.4,30.08,SW,217,0.0,0.0,97,0.00,BKN,,0.00,WeatherDisplay:10.37,2013-01-13 07:57:00,
2013-01-13 02:58:00,57.2,56.4,30.08,SW,216,0.0,0.0,97,0.00,BKN,,0.00,WeatherDisplay:10.37,2013-01-13 07:58:00,
2013-01-13 02:59:00,57.2,56.4,30.08,SW,217,0.0,0.0,97,0.00,BKN,,0.00,WeatherDisplay:10.37,2013-01-13 07:59:00,
2013-01-13 03:02:00,57.0,56.2,30.08,SW,217,0.0,0.0,97,0.00,BKN,,0.00,WeatherDisplay:10.37,2013-01-13 08:02:00,
2013-01-13 03:03:00,57.0,56.2,30.08,SW,217,0.0,0.0,97,0.00,BKN,,0.00,WeatherDisplay:10.37,2013-01-13 08:03:00,
2013-01-13 03:04:00,57.0,56.2,30.08,SW,217,0.0,0.0,97,0.00,BKN,,0.00,WeatherDisplay:10.37,2013-01-13 08:04:00,
2013-01-13 03:07:00,56.9,56.1,30.08,SW,217,0.0,0.0,97,0.00,BKN,,0.00,WeatherDisplay:10.37,2013-01-13 08:07:00,
2013-01-13 03:08:00,56.8,56.0,30.08,SW,216,0.0,0.0,97,0.00,BKN,,0.00,WeatherDisplay:10.37,2013-01-13 08:08:00,
2013-01-13 03:09:00,56.8,56.0,30.08,SW,216,0.0,0.0,97,0.00,BKN,,0.00,WeatherDisplay:10.37,2013-01-13 08:09:00,
2013-01-13 03:12:00,56.7,55.9,30.08,SW,216,0.0,0.0,97,0.00,BKN,,0.00,WeatherDisplay:10.37,2013-01-13 08:12:00,
2013-01-13 03:13:00,56.7,55.9,30.08,SW,217,0.0,0.0,97,0.00,BKN,,0.00,WeatherDisplay:10.37,2013-01-13 08:13:00,
2013-01-13 03:14:00,56.7,55.9,30.08,SW,217,0.0,0.0,97,0.00,BKN,,0.00,WeatherDisplay:10.37,2013-01-13 08:14:00,
2013-01-13 03:17:00,56.9,56.1,30.08,SW,217,0.0,0.0,97,0.00,BKN,,0.00,WeatherDisplay:10.37,2013-01-13 08:17:00,
2013-01-13 03:18:00,57.0,56.2,30.08,SW,217,0.0,0.0,97,0.00,BKN,,0.00,WeatherDisplay:10.37,2013-01-13 08:18:00,
2013-01-13 03:19:00,57.0,56.2,30.08,SW,217,0.0,0.0,97,0.00,BKN,,0.00,WeatherDisplay:10.37,2013-01-13 08:19:00,
2013-01-13 03:23:00,57.2,56.4,30.07,SW,217,0.0,0.0,97,0.00,BKN,,0.00,WeatherDisplay:10.37,2013-01-13 08:23:00,
2013-01-13 03:24:00,57.3,56.5,30.07,SW,217,0.0,0.0,97,0.00,BKN,,0.00,WeatherDisplay:10.37,2013-01-13 08:24:00,
2013-01-13 03:28:00,56.8,56.0,30.07,SW,217,0.0,0.0,97,0.00,BKN,,0.00,WeatherDisplay:10.37,2013-01-13 08:28:00,
2013-01-13 03:29:00,56.8,56.0,30.07,SW,217,0.0,0.0,97,0.00,BKN,,0.00,WeatherDisplay:10.37,2013-01-13 08:29:00,
2013-01-13 03:30:00,56.8,56.0,30.07,SW,217,0.0,0.0,97,0.00,BKN,,0.00,WeatherDisplay:10.37,2013-01-13 08:30:00,
2013-01-13 03:33:00,57.0,56.2,30.07,SW,217,0.0,0.0,97,0.00,BKN,,0.00,WeatherDisplay:10.37,2013-01-13 08:33:00,
2013-01-13 03:34:00,57.0,56.2,30.07,SW,217,0.0,0.0,97,0.00,BKN,,0.00,WeatherDisplay:10.37,2013-01-13 08:34:00,
2013-01-13 03:35:00,57.0,56.2,30.07,SW,217,0.0,0.0,97,0.00,BKN,,0.00,WeatherDisplay:10.37,2013-01-13 08:35:00,
2013-01-13 03:39:00,56.8,56.0,30.07,SW,217,0.0,0.0,97,0.00,BKN,,0.00,WeatherDisplay:10.37,2013-01-13 08:39:00,
2013-01-13 03:40:00,56.9,56.1,30.07,SW,216,0.0,0.0,97,0.00,BKN,,0.00,WeatherDisplay:10.37,2013-01-13 08:40:00,
2013-01-13 03:44:00,56.9,56.1,30.07,SW,216,0.0,0.0,97,0.00,BKN,,0.00,WeatherDisplay:10.37,2013-01-13 08:44:00,
2013-01-13 03:45:00,56.8,56.0,30.07,SW,217,0.0,0.0,97,0.00,BKN,,0.00,WeatherDisplay:10.37,2013-01-13 08:45:00,
2013-01-13 03:46:00,56.8,56.0,30.07,SW,216,0.0,0.0,97,0.00,BKN,,0.00,WeatherDisplay:10.37,2013-01-13 08:46:00,
2013-01-13 03:49:00,56.7,55.9,30.07,SW,217,0.0,0.0,97,0.00,BKN,,0.00,WeatherDisplay:10.37,2013-01-13 08:49:00,
2013-01-13 03:50:00,56.7,55.9,30.07,SW,217,0.0,0.0,97,0.00,BKN,,0.00,WeatherDisplay:10.37,2013-01-13 08:50:00,
2013-01-13 03:52:00,56.8,56.0,30.07,SW,217,0.0,0.0,97,0.00,BKN,,0.00,WeatherDisplay:10.37,2013-01-13 08:52:00,
2013-01-13 03:54:00,56.9,56.1,30.07,SW,216,0.0,0.0,97,0.00,BKN,,0.00,WeatherDisplay:10.37,2013-01-13 08:54:00,
2013-01-13 03:55:00,56.9,56.1,30.07,SW,217,0.0,0.0,97,0.00,BKN,,0.00,WeatherDisplay:10.37,2013-01-13 08:55:00,
2013-01-13 03:57:00,57.0,56.2,30.07,SW,217,0.0,0.0,97,0.00,BKN,,0.00,WeatherDisplay:10.37,2013-01-13 08:57:00,
2013-01-13 03:59:00,57.1,56.3,30.07,SW,217,0.0,0.0,97,0.00,BKN,,0.00,WeatherDisplay:10.37,2013-01-13 08:59:00,
2013-01-13 04:00:00,57.1,56.3,30.07,SW,216,0.0,0.0,97,0.00,BKN,,0.00,WeatherDisplay:10.37,2013-01-13 09:00:00,
2013-01-13 04:02:00,57.2,56.4,30.07,SW,217,0.0,0.0,97,0.00,,,0.00,WeatherDisplay:10.37,2013-01-13 09:02:00,
2013-01-13 04:04:00,57.2,56.4,30.07,SW,217,0.0,0.0,97,0.00,,,0.00,WeatherDisplay:10.37,2013-01-13 09:04:00,
2013-01-13 04:05:00,57.2,56.4,30.07,SW,217,0.0,0.0,97,0.00,,,0.00,WeatherDisplay:10.37,2013-01-13 09:05:00,
2013-01-13 04:07:00,57.2,56.4,30.07,SW,217,0.0,0.0,97,0.00,,,0.00,WeatherDisplay:10.37,2013-01-13 09:07:00,
2013-01-13 04:09:00,57.1,56.3,30.07,SW,216,0.0,0.0,97,0.00,,,0.00,WeatherDisplay:10.37,2013-01-13 09:09:00,
2013-01-13 04:10:00,56.9,56.1,30.07,SW,217,0.0,0.0,97,0.00,,,0.00,WeatherDisplay:10.37,2013-01-13 09:10:00,
2013-01-13 04:11:00,56.9,56.1,30.07,SW,217,0.0,0.0,97,0.00,,,0.00,WeatherDisplay:10.37,2013-01-13 09:11:00,
2013-01-13 04:12:00,56.8,56.0,30.07,SW,217,0.0,0.0,97,0.00,,,0.00,WeatherDisplay:10.37,2013-01-13 09:12:00,
2013-01-13 04:15:00,56.8,56.0,30.06,SW,217,0.0,0.0,97,0.00,,,0.00,WeatherDisplay:10.37,2013-01-13 09:15:00,
2013-01-13 04:16:00,56.8,56.0,30.06,SW,217,0.0,0.0,97,0.00,,,0.00,WeatherDisplay:10.37,2013-01-13 09:16:00,
2013-01-13 04:17:00,56.8,56.0,30.06,SW,217,0.0,0.0,97,0.00,,,0.00,WeatherDisplay:10.37,2013-01-13 09:17:00,
2013-01-13 04:20:00,56.8,56.0,30.06,SW,216,0.0,0.0,97,0.00,,,0.00,WeatherDisplay:10.37,2013-01-13 09:20:00,
2013-01-13 04:21:00,56.8,56.0,30.06,SW,217,0.0,0.0,97,0.00,,,0.00,WeatherDisplay:10.37,2013-01-13 09:21:00,
2013-01-13 04:22:00,56.8,56.0,30.06,SW,217,0.0,0.0,97,0.00,,,0.00,WeatherDisplay:10.37,2013-01-13 09:22:00,
2013-01-13 04:23:00,56.7,55.9,30.06,SW,217,0.0,0.0,97,0.00,,,0.00,WeatherDisplay:10.37,2013-01-13 09:23:00,
2013-01-13 04:26:00,56.7,55.9,30.07,SW,216,0.0,0.0,97,0.00,,,0.00,WeatherDisplay:10.37,2013-01-13 09:26:00,
2013-01-13 04:27:00,56.7,55.9,30.07,SW,216,0.0,0.0,97,0.00,,,0.00,WeatherDisplay:10.37,2013-01-13 09:27:00,
2013-01-13 04:28:00,56.6,55.8,30.06,SW,217,0.0,0.0,97,0.00,,,0.00,WeatherDisplay:10.37,2013-01-13 09:28:00,
2013-01-13 04:31:00,56.6,55.8,30.06,SW,217,0.0,0.0,97,0.00,,,0.00,WeatherDisplay:10.37,2013-01-13 09:31:00,
2013-01-13 04:32:00,56.6,55.8,30.06,SW,217,0.0,0.0,97,0.00,,,0.00,WeatherDisplay:10.37,2013-01-13 09:32:00,
2013-01-13 04:34:00,56.5,55.7,30.06,SW,217,0.0,0.0,97,0.00,,,0.00,WeatherDisplay:10.37,2013-01-13 09:34:00,
2013-01-13 04:37:00,56.3,55.5,30.06,SW,217,0.0,0.1,97,0.00,,,0.00,WeatherDisplay:10.37,2013-01-13 09:37:00,
2013-01-13 04:39:00,56.1,55.3,30.06,SW,217,0.0,0.0,97,0.00,,,0.00,WeatherDisplay:10.37,2013-01-13 09:39:00,
2013-01-13 04:42:00,56.1,55.3,30.06,SW,217,0.0,0.0,97,0.00,,,0.00,WeatherDisplay:10.37,2013-01-13 09:42:00,
2013-01-13 04:44:00,56.0,55.2,30.06,SW,217,0.0,0.0,97,0.00,,,0.00,WeatherDisplay:10.37,2013-01-13 09:44:00,
2013-01-13 04:47:00,56.1,55.3,30.06,SW,217,0.0,0.0,97,0.00,,,0.00,WeatherDisplay:10.37,2013-01-13 09:47:00,
2013-01-13 04:49:00,56.2,55.4,30.06,SW,217,0.0,0.0,97,0.00,,,0.00,WeatherDisplay:10.37,2013-01-13 09:49:00,
2013-01-13 04:52:00,56.5,55.7,30.06,SW,216,0.0,0.0,97,0.00,,,0.00,WeatherDisplay:10.37,2013-01-13 09:52:00,
2013-01-13 04:53:00,56.5,55.7,30.06,SW,217,0.0,0.0,97,0.00,,,0.00,WeatherDisplay:10.37,2013-01-13 09:53:00,
2013-01-13 04:54:00,56.4,55.6,30.06,SW,217,0.0,0.0,97,0.00,,,0.00,WeatherDisplay:10.37,2013-01-13 09:54:00,
2013-01-13 04:57:00,55.7,54.9,30.05,SW,217,2.3,2.3,97,0.00,,,0.00,WeatherDisplay:10.37,2013-01-13 09:57:00,
2013-01-13 04:58:00,55.7,54.9,30.05,SW,217,2.3,2.3,97,0.00,,,0.00,WeatherDisplay:10.37,2013-01-13 09:58:00,
2013-01-13 05:00:00,55.4,54.6,30.05,SW,217,0.0,0.0,97,0.00,,,0.00,WeatherDisplay:10.37,2013-01-13 10:00:00,
2013-01-13 05:03:00,55.3,54.5,30.05,SW,217,0.0,0.0,97,0.00,,,0.00,WeatherDisplay:10.37,2013-01-13 10:03:00,
2013-01-13 05:05:00,55.3,54.5,30.05,SW,217,0.0,0.0,97,0.00,,,0.00,WeatherDisplay:10.37,2013-01-13 10:05:00,
2013-01-13 05:08:00,55.4,54.6,30.05,SW,217,0.0,0.0,97,0.00,,,0.00,WeatherDisplay:10.37,2013-01-13 10:08:00,
2013-01-13 05:09:00,55.5,54.7,30.05,SW,217,0.0,0.0,97,0.00,,,0.00,WeatherDisplay:10.37,2013-01-13 10:09:00,
2013-01-13 05:10:00,55.5,54.7,30.06,SW,217,0.0,0.0,97,0.00,,,0.00,WeatherDisplay:10.37,2013-01-13 10:10:00,
2013-01-13 05:13:00,55.3,54.5,30.06,SW,217,0.0,0.0,97,0.00,,,0.00,WeatherDisplay:10.37,2013-01-13 10:13:00,
2013-01-13 05:14:00,55.3,54.5,30.06,SW,217,0.0,0.0,97,0.00,,,0.00,WeatherDisplay:10.37,2013-01-13 10:14:00,
2013-01-13 05:15:00,55.3,54.5,30.06,SW,217,0.0,0.0,97,0.00,,,0.00,WeatherDisplay:10.37,2013-01-13 10:15:00,
2013-01-13 05:18:00,55.2,54.4,30.06,SW,217,0.0,0.0,97,0.00,,,0.00,WeatherDisplay:10.37,2013-01-13 10:18:00,
2013-01-13 05:19:00,55.2,54.4,30.06,SW,217,0.0,0.0,97,0.00,,,0.00,WeatherDisplay:10.37,2013-01-13 10:19:00,
2013-01-13 05:20:00,55.2,54.4,30.06,SW,217,0.0,0.0,97,0.00,,,0.00,WeatherDisplay:10.37,2013-01-13 10:20:00,
2013-01-13 05:23:00,55.2,54.4,30.06,SW,217,0.0,0.0,97,0.00,,,0.00,WeatherDisplay:10.37,2013-01-13 10:23:00,
2013-01-13 05:24:00,55.2,54.4,30.06,SW,217,0.0,0.0,97,0.00,,,0.00,WeatherDisplay:10.37,2013-01-13 10:24:00,
2013-01-13 05:25:00,55.1,54.3,30.06,SW,217,0.0,0.0,97,0.00,,,0.00,WeatherDisplay:10.37,2013-01-13 10:25:00,
2013-01-13 05:28:00,55.0,54.2,30.06,SW,217,0.0,0.0,97,0.00,,,0.00,WeatherDisplay:10.37,2013-01-13 10:28:00,
2013-01-13 05:29:00,55.0,54.2,30.06,SW,217,0.0,0.0,97,0.00,,,0.00,WeatherDisplay:10.37,2013-01-13 10:29:00,
2013-01-13 05:30:00,55.0,54.2,30.06,SW,217,0.0,0.0,97,0.00,,,0.00,WeatherDisplay:10.37,2013-01-13 10:30:00,
2013-01-13 05:33:00,54.8,54.0,30.06,SW,217,0.0,0.0,97,0.00,,,0.00,WeatherDisplay:10.37,2013-01-13 10:33:00,
2013-01-13 05:35:00,54.8,54.0,30.06,SW,217,0.0,0.0,97,0.00,,,0.00,WeatherDisplay:10.37,2013-01-13 10:35:00,
2013-01-13 05:36:00,54.8,54.0,30.06,SW,217,0.0,0.0,97,0.00,,,0.00,WeatherDisplay:10.37,2013-01-13 10:36:00,
2013-01-13 05:39:00,54.6,53.8,30.06,SW,217,0.0,0.0,97,0.00,,,0.00,WeatherDisplay:10.37,2013-01-13 10:39:00,
2013-01-13 05:40:00,54.5,53.7,30.06,SW,217,0.0,0.0,97,0.00,,,0.00,WeatherDisplay:10.37,2013-01-13 10:40:00,
2013-01-13 05:41:00,54.6,53.8,30.06,SW,217,0.0,0.0,97,0.00,,,0.00,WeatherDisplay:10.37,2013-01-13 10:41:00,
2013-01-13 05:44:00,54.6,53.8,30.06,SW,217,0.0,0.0,97,0.00,,,0.00,WeatherDisplay:10.37,2013-01-13 10:44:00,
2013-01-13 05:45:00,54.5,53.7,30.06,SW,217,0.0,0.0,97,0.00,,,0.00,WeatherDisplay:10.37,2013-01-13 10:45:00,
2013-01-13 05:46:00,54.4,53.6,30.06,SW,217,0.0,0.0,97,0.00,,,0.00,WeatherDisplay:10.37,2013-01-13 10:46:00,
2013-01-13 05:49:00,54.2,53.4,30.06,SW,217,0.0,0.0,97,0.00,,,0.00,WeatherDisplay:10.37,2013-01-13 10:49:00,
2013-01-13 05:50:00,54.2,53.4,30.07,SW,217,0.0,0.0,97,0.00,,,0.00,WeatherDisplay:10.37,2013-01-13 10:50:00,
2013-01-13 05:52:00,54.3,53.5,30.06,SW,217,0.0,0.0,97,0.00,,,0.00,WeatherDisplay:10.37,2013-01-13 10:52:00,
2013-01-13 05:54:00,54.3,53.5,30.07,SW,217,0.0,0.0,97,0.00,,,0.00,WeatherDisplay:10.37,2013-01-13 10:54:00,
2013-01-13 05:56:00,54.3,53.5,30.06,SW,217,0.0,0.0,97,0.00,,,0.00,WeatherDisplay:10.37,2013-01-13 10:56:00,
2013-01-13 05:57:00,54.2,53.4,30.06,SW,216,0.0,0.0,97,0.00,,,0.00,WeatherDisplay:10.37,2013-01-13 10:57:00,
2013-01-13 05:59:00,54.1,53.3,30.06,SW,217,0.0,0.0,97,0.00,,,0.00,WeatherDisplay:10.37,2013-01-13 10:59:00,
2013-01-13 06:01:00,54.1,53.3,30.06,SW,217,0.0,0.0,97,0.00,,,0.00,WeatherDisplay:10.37,2013-01-13 11:01:00,
2013-01-13 06:02:00,54.0,53.2,30.06,SW,217,0.0,0.0,97,0.00,,,0.00,WeatherDisplay:10.37,2013-01-13 11:02:00,
2013-01-13 06:03:00,54.0,53.2,30.06,SW,217,0.0,0.0,97,0.00,,,0.00,WeatherDisplay:10.37,2013-01-13 11:03:00,
2013-01-13 06:04:00,53.8,53.0,30.06,SW,217,0.0,0.0,97,0.00,,,0.00,WeatherDisplay:10.37,2013-01-13 11:04:00,
2013-01-13 06:06:00,53.7,52.9,30.06,SW,217,0.0,0.0,97,0.00,,,0.00,WeatherDisplay:10.37,2013-01-13 11:06:00,
2013-01-13 06:07:00,53.6,52.8,30.06,SW,217,0.0,0.0,97,0.00,,,0.00,WeatherDisplay:10.37,2013-01-13 11:07:00,
2013-01-13 06:09:00,53.5,52.7,30.07,SW,216,0.0,0.0,97,0.00,,,0.00,WeatherDisplay:10.37,2013-01-13 11:09:00,
2013-01-13 06:10:00,53.4,52.6,30.06,SW,217,0.0,0.0,97,0.00,,,0.00,WeatherDisplay:10.37,2013-01-13 11:10:00,
2013-01-13 06:11:00,53.4,52.6,30.06,SW,217,0.0,0.0,97,0.00,,,0.00,WeatherDisplay:10.37,2013-01-13 11:11:00,
2013-01-13 06:13:00,53.3,52.5,30.06,SW,217,0.0,0.0,97,0.00,,,0.00,WeatherDisplay:10.37,2013-01-13 11:13:00,
2013-01-13 06:14:00,53.2,52.4,30.06,SW,217,0.0,0.0,97,0.00,,,0.00,WeatherDisplay:10.37,2013-01-13 11:14:00,
2013-01-13 06:15:00,53.1,52.3,30.06,SW,217,0.0,0.0,97,0.00,,,0.00,WeatherDisplay:10.37,2013-01-13 11:15:00,
2013-01-13 06:17:00,53.0,52.2,30.07,SW,217,0.0,0.0,97,0.00,,,0.00,WeatherDisplay:10.37,2013-01-13 11:17:00,
2013-01-13 06:18:00,53.0,52.2,30.07,SW,217,0.0,0.0,97,0.00,,,0.00,WeatherDisplay:10.37,2013-01-13 11:18:00,
2013-01-13 06:19:00,53.1,52.3,30.07,SW,217,0.0,0.0,97,0.00,,,0.00,WeatherDisplay:10.37,2013-01-13 11:19:00,
2013-01-13 06:20:00,53.2,52.4,30.07,SW,217,0.0,0.0,97,0.00,,,0.00,WeatherDisplay:10.37,2013-01-13 11:20:00,
2013-01-13 06:23:00,53.3,52.5,30.07,SW,217,0.0,0.0,97,0.00,,,0.00,WeatherDisplay:10.37,2013-01-13 11:23:00,
2013-01-13 06:25:00,53.3,52.5,30.07,SW,217,0.0,0.0,97,0.00,,,0.00,WeatherDisplay:10.37,2013-01-13 11:25:00,
2013-01-13 06:28:00,53.3,52.5,30.07,SW,217,0.0,0.0,97,0.00,,,0.00,WeatherDisplay:10.37,2013-01-13 11:28:00,
2013-01-13 06:30:00,53.3,52.5,30.07,SW,217,0.0,0.0,97,0.00,,,0.00,WeatherDisplay:10.37,2013-01-13 11:30:00,
2013-01-13 06:31:00,53.3,52.5,30.07,SW,216,0.0,0.0,97,0.00,,,0.00,WeatherDisplay:10.37,2013-01-13 11:31:00,
2013-01-13 06:33:00,53.2,52.4,30.07,SW,217,0.0,0.0,97,0.00,,,0.00,WeatherDisplay:10.37,2013-01-13 11:33:00,
2013-01-13 06:34:00,53.0,52.2,30.07,SW,217,0.0,0.0,97,0.00,,,0.00,WeatherDisplay:10.37,2013-01-13 11:34:00,
2013-01-13 06:35:00,52.9,52.1,30.07,SW,217,0.0,0.0,97,0.00,,,0.00,WeatherDisplay:10.37,2013-01-13 11:35:00,
2013-01-13 06:36:00,52.7,51.9,30.07,SW,217,0.0,0.0,97,0.00,,,0.00,WeatherDisplay:10.37,2013-01-13 11:36:00,
2013-01-13 06:38:00,52.4,51.6,30.07,SW,217,0.0,0.0,97,0.00,,,0.00,WeatherDisplay:10.37,2013-01-13 11:38:00,
2013-01-13 06:39:00,52.4,51.6,30.07,SW,217,0.0,0.0,97,0.00,,,0.00,WeatherDisplay:10.37,2013-01-13 11:39:00,
2013-01-13 06:40:00,52.4,51.6,30.07,SW,217,0.0,0.0,97,0.00,,,0.00,WeatherDisplay:10.37,2013-01-13 11:40:00,
2013-01-13 06:41:00,52.4,51.6,30.07,SW,217,0.0,0.0,97,0.00,,,0.00,WeatherDisplay:10.37,2013-01-13 11:41:00,
2013-01-13 06:44:00,52.5,51.7,30.07,SW,217,0.0,0.0,97,0.00,,,0.00,WeatherDisplay:10.37,2013-01-13 11:44:00,
2013-01-13 06:45:00,52.5,51.7,30.07,SW,217,0.0,0.0,97,0.00,,,0.00,WeatherDisplay:10.37,2013-01-13 11:45:00,
2013-01-13 06:46:00,52.6,51.8,30.07,SW,217,0.0,0.0,97,0.00,,,0.00,WeatherDisplay:10.37,2013-01-13 11:46:00,
2013-01-13 06:50:00,52.7,51.9,30.07,SW,217,0.0,0.0,97,0.00,,,0.00,WeatherDisplay:10.37,2013-01-13 11:50:00,
2013-01-13 06:52:00,52.9,52.1,30.07,SW,217,0.0,0.0,97,0.00,,,0.00,WeatherDisplay:10.37,2013-01-13 11:52:00,
2013-01-13 06:55:00,53.2,52.4,30.08,SW,217,0.0,0.0,97,0.00,,,0.00,WeatherDisplay:10.37,2013-01-13 11:55:00,
2013-01-13 06:56:00,53.2,52.4,30.08,SW,217,0.0,0.0,97,0.00,,,0.00,WeatherDisplay:10.37,2013-01-13 11:56:00,
2013-01-13 06:57:00,53.3,52.5,30.08,SW,217,0.0,0.0,97,0.00,,,0.00,WeatherDisplay:10.37,2013-01-13 11:57:00,
2013-01-13 07:00:00,53.1,52.3,30.08,SW,217,0.0,0.0,97,0.00,,,0.00,WeatherDisplay:10.37,2013-01-13 12:00:00,
2013-01-13 07:01:00,53.1,52.3,30.07,SW,217,0.0,0.0,97,0.00,SCT,,0.00,WeatherDisplay:10.37,2013-01-13 12:01:00,
2013-01-13 07:02:00,53.1,52.3,30.07,SW,217,0.0,0.0,97,0.00,SCT,,0.00,WeatherDisplay:10.37,2013-01-13 12:02:00,
2013-01-13 07:06:00,53.0,52.2,30.07,SW,217,0.0,0.0,97,0.00,SCT,,0.00,WeatherDisplay:10.37,2013-01-13 12:06:00,
2013-01-13 07:07:00,53.0,52.2,30.07,SW,217,0.0,0.0,97,0.00,SCT,,0.00,WeatherDisplay:10.37,2013-01-13 12:07:00,
2013-01-13 07:11:00,53.0,52.2,30.07,SW,217,0.0,0.0,97,0.00,SCT,,0.00,WeatherDisplay:10.37,2013-01-13 12:11:00,
2013-01-13 07:12:00,53.1,52.3,30.08,SW,217,0.0,0.0,97,0.00,SCT,,0.00,WeatherDisplay:10.37,2013-01-13 12:12:00,
2013-01-13 07:16:00,53.2,52.4,30.08,SW,217,0.0,0.0,97,0.00,SCT,,0.00,WeatherDisplay:10.37,2013-01-13 12:16:00,
2013-01-13 07:17:00,53.2,52.4,30.08,SW,217,0.0,0.0,97,0.00,SCT,,0.00,WeatherDisplay:10.37,2013-01-13 12:17:00,
2013-01-13 07:21:00,53.3,52.5,30.08,SW,217,0.0,0.0,97,0.00,SCT,,0.00,WeatherDisplay:10.37,2013-01-13 12:21:00,
2013-01-13 07:22:00,53.3,52.5,30.08,SW,217,0.0,0.0,97,0.00,SCT,,0.00,WeatherDisplay:10.37,2013-01-13 12:22:00,
2013-01-13 07:26:00,53.2,52.4,30.08,SW,217,0.0,0.0,97,0.00,SCT,,0.00,WeatherDisplay:10.37,2013-01-13 12:26:00,
2013-01-13 07:27:00,53.2,52.4,30.08,SW,217,0.0,0.0,97,0.00,SCT,,0.00,WeatherDisplay:10.37,2013-01-13 12:27:00,
2013-01-13 07:31:00,53.6,52.8,30.08,SW,217,0.0,0.0,97,0.00,SCT,,0.00,WeatherDisplay:10.37,2013-01-13 12:31:00,
2013-01-13 07:32:00,53.7,52.9,30.08,SW,217,0.0,0.0,97,0.00,SCT,,0.00,WeatherDisplay:10.37,2013-01-13 12:32:00,
2013-01-13 07:33:00,53.7,52.9,30.08,SW,217,0.0,0.0,97,0.00,SCT,,0.00,WeatherDisplay:10.37,2013-01-13 12:33:00,
2013-01-13 07:36:00,53.7,52.9,30.09,SW,216,0.0,0.0,97,0.00,SCT,,0.00,WeatherDisplay:10.37,2013-01-13 12:36:00,
2013-01-13 07:37:00,53.7,52.9,30.09,SW,216,0.0,0.0,97,0.00,SCT,,0.00,WeatherDisplay:10.37,2013-01-13 12:37:00,
2013-01-13 07:38:00,53.8,53.0,30.09,SW,217,0.0,0.0,97,0.00,SCT,,0.00,WeatherDisplay:10.37,2013-01-13 12:38:00,
2013-01-13 07:41:00,54.1,53.5,30.09,SW,217,0.0,0.0,98,0.00,SCT,,0.00,WeatherDisplay:10.37,2013-01-13 12:41:00,
2013-01-13 07:42:00,54.3,53.7,30.09,SW,217,0.0,0.0,98,0.00,SCT,,0.00,WeatherDisplay:10.37,2013-01-13 12:42:00,
2013-01-13 07:43:00,54.3,53.7,30.09,SW,217,0.0,0.0,98,0.00,SCT,,0.00,WeatherDisplay:10.37,2013-01-13 12:43:00,
2013-01-13 07:47:00,54.1,53.5,30.09,SW,217,0.0,0.0,98,0.00,SCT,,0.00,WeatherDisplay:10.37,2013-01-13 12:47:00,
2013-01-13 07:48:00,54.1,53.5,30.09,SW,217,0.0,0.0,98,0.00,SCT,,0.00,WeatherDisplay:10.37,2013-01-13 12:48:00,
2013-01-13 07:50:00,54.1,53.5,30.09,SW,217,0.0,0.0,98,0.00,SCT,,0.00,WeatherDisplay:10.37,2013-01-13 12:50:00,
2013-01-13 07:52:00,54.3,53.7,30.09,SW,217,0.0,0.0,98,0.00,SCT,,0.00,WeatherDisplay:10.37,2013-01-13 12:52:00,
2013-01-13 07:53:00,54.4,53.8,30.09,SW,217,0.0,0.0,98,0.00,SCT,,0.00,WeatherDisplay:10.37,2013-01-13 12:53:00,
2013-01-13 07:55:00,54.7,54.1,30.09,SW,217,0.0,0.0,98,0.00,SCT,,0.00,WeatherDisplay:10.37,2013-01-13 12:55:00,
2013-01-13 07:57:00,54.7,54.1,30.09,SW,217,0.0,0.0,98,0.00,SCT,,0.00,WeatherDisplay:10.37,2013-01-13 12:57:00,
2013-01-13 07:58:00,54.6,54.0,30.09,SW,217,0.0,0.0,98,0.00,SCT,,0.00,WeatherDisplay:10.37,2013-01-13 12:58:00,
2013-01-13 08:00:00,54.6,54.0,30.09,SW,217,0.0,0.0,98,0.00,SCT,,0.00,WeatherDisplay:10.37,2013-01-13 13:00:00,
2013-01-13 08:02:00,54.6,54.0,30.09,SW,217,0.0,0.0,98,0.00,SCT,,0.00,WeatherDisplay:10.37,2013-01-13 13:02:00,
2013-01-13 08:03:00,54.7,54.1,30.09,SW,217,0.0,0.0,98,0.00,SCT,,0.00,WeatherDisplay:10.37,2013-01-13 13:03:00,
2013-01-13 08:04:00,54.8,54.2,30.09,SW,217,0.0,0.0,98,0.00,SCT,,0.00,WeatherDisplay:10.37,2013-01-13 13:04:00,
2013-01-13 08:05:00,54.9,54.3,30.09,SW,217,0.0,0.0,98,0.00,SCT,,0.00,WeatherDisplay:10.37,2013-01-13 13:05:00,
2013-01-13 08:07:00,55.1,54.5,30.09,SSW,195,0.0,0.1,98,0.00,SCT,,0.00,WeatherDisplay:10.37,2013-01-13 13:07:00,
2013-01-13 08:09:00,55.3,54.7,30.09,SSW,195,0.0,0.0,98,0.00,SCT,,0.00,WeatherDisplay:10.37,2013-01-13 13:09:00,
2013-01-13 08:11:00,55.5,54.9,30.09,SSW,207,2.3,2.3,98,0.00,SCT,,0.00,WeatherDisplay:10.37,2013-01-13 13:11:00,
2013-01-13 08:12:00,55.7,55.1,30.09,SSW,207,2.3,2.3,98,0.00,SCT,,0.00,WeatherDisplay:10.37,2013-01-13 13:12:00,
2013-01-13 08:14:00,55.8,55.2,30.09,SSE,160,5.8,5.8,98,0.00,SCT,,0.00,WeatherDisplay:10.37,2013-01-13 13:14:00,
2013-01-13 08:16:00,56.0,55.4,30.09,SSE,148,5.8,5.8,98,0.00,SCT,,0.00,WeatherDisplay:10.37,2013-01-13 13:16:00,
2013-01-13 08:17:00,56.0,55.4,30.09,SSE,148,0.0,0.0,98,0.00,SCT,,0.00,WeatherDisplay:10.37,2013-01-13 13:17:00,
2013-01-13 08:19:00,56.2,55.6,30.09,SSE,148,0.0,0.0,98,0.00,SCT,,0.00,WeatherDisplay:10.37,2013-01-13 13:19:00,
2013-01-13 08:20:00,56.2,55.6,30.09,SSE,148,0.0,0.0,98,0.00,SCT,,0.00,WeatherDisplay:10.37,2013-01-13 13:20:00,
2013-01-13 08:21:00,56.2,55.6,30.09,SSE,158,0.0,0.0,98,0.00,SCT,,0.00,WeatherDisplay:10.37,2013-01-13 13:21:00,
2013-01-13 08:22:00,56.3,55.7,30.09,SSE,158,0.0,0.0,98,0.00,SCT,,0.00,WeatherDisplay:10.37,2013-01-13 13:22:00,
2013-01-13 08:25:00,56.5,55.9,30.09,SSE,164,0.0,0.0,98,0.00,SCT,,0.00,WeatherDisplay:10.37,2013-01-13 13:25:00,
2013-01-13 08:26:00,56.6,56.0,30.10,SSE,164,0.0,0.1,98,0.00,SCT,,0.00,WeatherDisplay:10.37,2013-01-13 13:26:00,
2013-01-13 08:27:00,56.7,56.1,30.10,SSW,205,0.0,0.0,98,0.00,SCT,,0.00,WeatherDisplay:10.37,2013-01-13 13:27:00,
2013-01-13 08:30:00,56.8,56.2,30.10,SSW,205,2.3,2.3,98,0.00,SCT,,0.00,WeatherDisplay:10.37,2013-01-13 13:30:00,
2013-01-13 08:32:00,56.9,56.3,30.10,SSW,205,1.8,1.8,98,0.00,SCT,,0.00,WeatherDisplay:10.37,2013-01-13 13:32:00,
2013-01-13 08:33:00,57.0,56.4,30.11,SSW,205,0.0,0.0,98,0.00,SCT,,0.00,WeatherDisplay:10.37,2013-01-13 13:33:00,
2013-01-13 08:35:00,57.0,56.4,30.11,SSW,205,0.0,0.0,98,0.00,SCT,,0.00,WeatherDisplay:10.37,2013-01-13 13:35:00,
2013-01-13 08:36:00,57.1,56.5,30.11,SSW,205,0.0,0.0,98,0.00,SCT,,0.00,WeatherDisplay:10.37,2013-01-13 13:36:00,
2013-01-13 08:37:00,57.1,56.5,30.11,SSW,205,0.0,0.0,98,0.00,SCT,,0.00,WeatherDisplay:10.37,2013-01-13 13:37:00,
2013-01-13 08:39:00,57.2,56.6,30.11,SSW,192,3.5,3.5,98,0.00,SCT,,0.00,WeatherDisplay:10.37,2013-01-13 13:39:00,
2013-01-13 08:40:00,57.2,56.6,30.11,South,191,2.3,2.3,98,0.00,SCT,,0.00,WeatherDisplay:10.37,2013-01-13 13:40:00,
2013-01-13 08:41:00,57.3,56.7,30.11,SSW,192,0.0,0.0,98,0.00,SCT,,0.00,WeatherDisplay:10.37,2013-01-13 13:41:00,
2013-01-13 08:42:00,57.4,56.8,30.10,South,191,0.0,0.0,98,0.00,SCT,,0.00,WeatherDisplay:10.37,2013-01-13 13:42:00,
2013-01-13 08:45:00,57.5,56.9,30.10,SSW,199,2.3,0.0,98,0.00,SCT,,0.00,WeatherDisplay:10.37,2013-01-13 13:45:00,
2013-01-13 08:46:00,57.5,56.9,30.11,SSW,200,0.0,0.0,98,0.00,SCT,,0.00,WeatherDisplay:10.37,2013-01-13 13:46:00,
2013-01-13 08:47:00,57.5,56.9,30.11,SSW,200,0.0,0.0,98,0.00,SCT,,0.00,WeatherDisplay:10.37,2013-01-13 13:47:00,
2013-01-13 08:50:00,57.4,56.8,30.11,SSW,211,2.3,0.0,98,0.00,SCT,,0.00,WeatherDisplay:10.37,2013-01-13 13:50:00,
2013-01-13 08:52:00,57.4,56.8,30.11,SSW,211,0.0,0.0,98,0.00,SCT,,0.00,WeatherDisplay:10.37,2013-01-13 13:52:00,
2013-01-13 08:53:00,57.5,56.9,30.11,SSW,211,0.0,0.0,98,0.00,SCT,,0.00,WeatherDisplay:10.37,2013-01-13 13:53:00,
2013-01-13 08:55:00,57.6,57.0,30.11,SSW,211,0.0,0.0,98,0.00,SCT,,0.00,WeatherDisplay:10.37,2013-01-13 13:55:00,
2013-01-13 08:57:00,57.7,57.1,30.11,SSW,211,0.0,0.0,98,0.00,SCT,,0.00,WeatherDisplay:10.37,2013-01-13 13:57:00,
2013-01-13 08:58:00,57.8,57.2,30.11,SSW,210,0.0,0.0,98,0.00,SCT,,0.00,WeatherDisplay:10.37,2013-01-13 13:58:00,
2013-01-13 09:00:00,57.9,57.3,30.11,SSW,210,0.0,0.0,98,0.00,SCT,,0.00,WeatherDisplay:10.37,2013-01-13 14:00:00,
2013-01-13 09:01:00,57.9,57.3,30.11,SSW,210,0.0,0.0,98,0.00,SCT,,0.00,WeatherDisplay:10.37,2013-01-13 14:01:00,
2013-01-13 09:02:00,57.9,57.3,30.11,SSW,210,0.0,0.1,98,0.00,SCT,,0.00,WeatherDisplay:10.37,2013-01-13 14:02:00,
2013-01-13 09:04:00,57.9,57.3,30.11,SSW,210,0.0,0.0,98,0.00,SCT,,0.00,WeatherDisplay:10.37,2013-01-13 14:04:00,
2013-01-13 09:05:00,58.0,57.4,30.11,SSW,210,0.0,0.0,98,0.00,SCT,,0.00,WeatherDisplay:10.37,2013-01-13 14:05:00,
2013-01-13 09:06:00,58.0,57.4,30.11,SSW,210,0.0,0.0,98,0.00,SCT,,0.00,WeatherDisplay:10.37,2013-01-13 14:06:00,
2013-01-13 09:07:00,58.1,57.5,30.11,SSW,210,0.0,0.0,98,0.00,SCT,,0.00,WeatherDisplay:10.37,2013-01-13 14:07:00,
2013-01-13 09:09:00,58.3,57.7,30.11,SSW,210,0.0,0.0,98,0.00,SCT,,0.00,WeatherDisplay:10.37,2013-01-13 14:09:00,
2013-01-13 09:11:00,58.5,57.9,30.12,SW,221,3.5,3.5,98,0.00,SCT,,0.00,WeatherDisplay:10.37,2013-01-13 14:11:00,
2013-01-13 09:12:00,58.7,58.1,30.12,SW,221,2.3,0.0,98,0.00,SCT,,0.00,WeatherDisplay:10.37,2013-01-13 14:12:00,
2013-01-13 09:14:00,59.1,58.5,30.12,South,180,3.5,3.5,98,0.00,SCT,,0.00,WeatherDisplay:10.37,2013-01-13 14:14:00,
2013-01-13 09:16:00,59.4,58.8,30.12,SSE,164,3.5,3.5,98,0.00,SCT,,0.00,WeatherDisplay:10.37,2013-01-13 14:16:00,
2013-01-13 09:18:00,59.6,59.0,30.12,SSE,148,5.8,5.8,98,0.00,SCT,,0.00,WeatherDisplay:10.37,2013-01-13 14:18:00,
2013-01-13 09:19:00,59.8,59.2,30.12,SSE,156,3.5,3.5,98,0.00,SCT,,0.00,WeatherDisplay:10.37,2013-01-13 14:19:00,
2013-01-13 09:21:00,59.9,59.3,30.12,SSW,211,3.5,3.5,98,0.00,SCT,,0.00,WeatherDisplay:10.37,2013-01-13 14:21:00,
2013-01-13 09:23:00,60.0,59.4,30.12,SSW,205,3.5,3.5,98,0.00,SCT,,0.00,WeatherDisplay:10.37,2013-01-13 14:23:00,
2013-01-13 09:24:00,60.0,59.4,30.12,West,263,6.9,6.9,98,0.00,SCT,,0.00,WeatherDisplay:10.37,2013-01-13 14:24:00,
2013-01-13 09:26:00,60.0,59.4,30.12,SE,146,5.8,5.8,98,0.00,SCT,,0.00,WeatherDisplay:10.37,2013-01-13 14:26:00,
2013-01-13 09:28:00,60.1,59.5,30.12,SE,139,5.8,5.8,98,0.00,SCT,,0.00,WeatherDisplay:10.37,2013-01-13 14:28:00,
2013-01-13 09:29:00,60.1,59.5,30.12,SSE,164,6.9,6.9,98,0.00,SCT,,0.00,WeatherDisplay:10.37,2013-01-13 14:29:00,
2013-01-13 09:31:00,60.1,59.5,30.12,South,174,6.9,6.9,98,0.00,SCT,,0.00,WeatherDisplay:10.37,2013-01-13 14:31:00,
2013-01-13 09:32:00,60.2,59.6,30.12,South,179,6.9,6.9,98,0.00,SCT,,0.00,WeatherDisplay:10.37,2013-01-13 14:32:00,
2013-01-13 09:33:00,60.2,59.6,30.12,SSW,198,3.5,3.5,98,0.00,SCT,,0.00,WeatherDisplay:10.37,2013-01-13 14:33:00,
2013-01-13 09:34:00,60.2,59.6,30.11,South,178,12.3,12.3,98,0.00,SCT,,0.00,WeatherDisplay:10.37,2013-01-13 14:34:00,
2013-01-13 09:36:00,60.3,59.7,30.12,SSW,206,6.9,6.9,98,0.00,SCT,,0.00,WeatherDisplay:10.37,2013-01-13 14:36:00,
2013-01-13 09:37:00,60.4,59.8,30.12,SSE,166,6.9,6.9,98,0.00,SCT,,0.00,WeatherDisplay:10.37,2013-01-13 14:37:00,
2013-01-13 09:39:00,60.5,59.9,30.12,SE,142,7.0,7.0,98,0.00,SCT,,0.00,WeatherDisplay:10.37,2013-01-13 14:39:00,
2013-01-13 09:40:00,60.5,59.9,30.12,SSW,193,6.9,6.9,98,0.00,SCT,,0.00,WeatherDisplay:10.37,2013-01-13 14:40:00,
2013-01-13 09:42:00,60.6,60.0,30.12,SSW,192,7.0,7.0,98,0.00,SCT,,0.00,WeatherDisplay:10.37,2013-01-13 14:42:00,
2013-01-13 09:44:00,60.7,60.1,30.12,South,180,6.9,6.9,98,0.00,SCT,,0.00,WeatherDisplay:10.37,2013-01-13 14:44:00,
2013-01-13 09:45:00,60.8,59.9,30.12,SW,216,6.9,6.9,97,0.00,SCT,,0.00,WeatherDisplay:10.37,2013-01-13 14:45:00,
2013-01-13 09:47:00,60.9,59.8,30.12,SSW,197,7.0,7.0,96,0.00,SCT,,0.00,WeatherDisplay:10.37,2013-01-13 14:47:00,
2013-01-13 09:49:00,61.1,59.7,30.12,WSW,252,6.9,6.9,95,0.00,SCT,,0.00,WeatherDisplay:10.37,2013-01-13 14:49:00,
2013-01-13 09:50:00,61.2,59.8,30.12,SW,218,9.2,9.2,95,0.00,SCT,,0.00,WeatherDisplay:10.37,2013-01-13 14:50:00,
2013-01-13 09:52:00,61.4,59.4,30.12,SSE,150,9.2,9.2,93,0.00,SCT,,0.00,WeatherDisplay:10.37,2013-01-13 14:52:00,
2013-01-13 09:53:00,61.4,59.4,30.12,SSE,167,9.2,9.2,93,0.00,SCT,,0.00,WeatherDisplay:10.37,2013-01-13 14:53:00,
2013-01-13 09:54:00,61.6,59.6,30.12,SSW,198,9.2,9.2,93,0.00,SCT,,0.00,WeatherDisplay:10.37,2013-01-13 14:54:00,
2013-01-13 09:55:00,61.6,59.3,30.12,SW,221,10.4,10.4,92,0.00,SCT,,0.00,WeatherDisplay:10.37,2013-01-13 14:55:00,
2013-01-13 09:57:00,61.7,59.4,30.12,South,186,3.5,3.5,92,0.00,SCT,,0.00,WeatherDisplay:10.37,2013-01-13 14:57:00,
2013-01-13 09:59:00,61.8,59.5,30.12,SW,215,5.8,5.8,92,0.00,SCT,,0.00,WeatherDisplay:10.37,2013-01-13 14:59:00,
2013-01-13 10:00:00,61.9,59.5,30.12,South,191,3.5,3.5,92,0.00,BKN,,0.00,WeatherDisplay:10.37,2013-01-13 15:00:00,
2013-01-13 10:02:00,62.0,59.6,30.12,SW,221,3.5,3.5,92,0.00,BKN,,0.00,WeatherDisplay:10.37,2013-01-13 15:02:00,
2013-01-13 10:03:00,62.0,59.3,30.12,SSE,161,5.8,5.8,91,0.00,BKN,,0.00,WeatherDisplay:10.37,2013-01-13 15:03:00,
2013-01-13 10:04:00,62.1,59.4,30.12,SSW,201,3.5,3.5,91,0.00,BKN,,0.00,WeatherDisplay:10.37,2013-01-13 15:04:00,
2013-01-13 10:05:00,62.2,59.5,30.12,WSW,246,3.5,3.5,91,0.00,BKN,,0.00,WeatherDisplay:10.37,2013-01-13 15:05:00,
2013-01-13 10:07:00,62.2,59.5,30.12,WSW,256,5.8,5.8,91,0.00,BKN,,0.00,WeatherDisplay:10.37,2013-01-13 15:07:00,
2013-01-13 10:08:00,62.3,59.6,30.12,SW,228,2.3,2.3,91,0.00,BKN,,0.00,WeatherDisplay:10.37,2013-01-13 15:08:00,
2013-01-13 10:10:00,62.4,59.7,30.12,WSW,249,5.8,5.8,91,0.00,BKN,,0.00,WeatherDisplay:10.37,2013-01-13 15:10:00,
2013-01-13 10:13:00,62.5,59.8,30.12,SSW,210,12.7,12.7,91,0.00,BKN,,0.00,WeatherDisplay:10.37,2013-01-13 15:13:00,
2013-01-13 10:15:00,62.6,59.6,30.12,South,181,7.0,7.0,90,0.00,BKN,,0.00,WeatherDisplay:10.37,2013-01-13 15:15:00,
2013-01-13 10:16:00,62.6,59.6,30.12,SSE,151,10.4,10.4,90,0.00,BKN,,0.00,WeatherDisplay:10.37,2013-01-13 15:16:00,
2013-01-13 10:18:00,62.7,59.7,30.12,South,180,6.9,6.9,90,0.00,BKN,,0.00,WeatherDisplay:10.37,2013-01-13 15:18:00,
2013-01-13 10:19:00,62.7,59.7,30.12,SSE,152,6.9,6.9,90,0.00,BKN,,0.00,WeatherDisplay:10.37,2013-01-13 15:19:00,
2013-01-13 10:20:00,62.8,59.8,30.12,SE,137,3.5,3.5,90,0.00,BKN,,0.00,WeatherDisplay:10.37,2013-01-13 15:20:00,
2013-01-13 10:21:00,62.8,59.8,30.12,SSW,212,5.3,5.3,90,0.00,BKN,,0.00,WeatherDisplay:10.37,2013-01-13 15:21:00,
2013-01-13 10:24:00,62.8,59.8,30.11,WSW,243,5.3,5.3,90,0.00,BKN,,0.00,WeatherDisplay:10.37,2013-01-13 15:24:00,
2013-01-13 10:25:00,62.9,59.9,30.11,SSW,205,3.5,3.5,90,0.00,BKN,,0.00,WeatherDisplay:10.37,2013-01-13 15:25:00,
2013-01-13 10:26:00,62.9,59.9,30.11,SW,221,7.0,7.0,90,0.00,BKN,,0.00,WeatherDisplay:10.37,2013-01-13 15:26:00,
2013-01-13 10:29:00,63.0,60.0,30.11,SSE,150,3.5,3.5,90,0.00,BKN,,0.00,WeatherDisplay:10.37,2013-01-13 15:29:00,
2013-01-13 10:31:00,63.1,60.1,30.11,SSW,205,6.9,6.9,90,0.00,BKN,,0.00,WeatherDisplay:10.37,2013-01-13 15:31:00,
2013-01-13 10:34:00,63.1,60.1,30.11,SSW,207,7.0,7.0,90,0.00,BKN,,0.00,WeatherDisplay:10.37,2013-01-13 15:34:00,
2013-01-13 10:36:00,63.2,60.2,30.11,SSW,198,3.5,3.5,90,0.00,BKN,,0.00,WeatherDisplay:10.37,2013-01-13 15:36:00,
2013-01-13 10:37:00,63.3,60.3,30.11,South,190,5.3,5.3,90,0.00,BKN,,0.00,WeatherDisplay:10.37,2013-01-13 15:37:00,
2013-01-13 10:39:00,63.4,60.4,30.11,SSE,159,10.4,10.4,90,0.00,BKN,,0.00,WeatherDisplay:10.37,2013-01-13 15:39:00,
2013-01-13 10:40:00,63.4,60.4,30.11,SE,140,10.4,10.4,90,0.00,BKN,,0.00,WeatherDisplay:10.37,2013-01-13 15:40:00,
2013-01-13 10:41:00,63.4,60.1,30.11,SSW,193,10.4,10.4,89,0.00,BKN,,0.00,WeatherDisplay:10.37,2013-01-13 15:41:00,
2013-01-13 10:42:00,63.4,60.1,30.11,South,173,9.2,9.2,89,0.00,BKN,,0.00,WeatherDisplay:10.37,2013-01-13 15:42:00,
2013-01-13 10:45:00,63.5,60.5,30.11,WSW,247,9.2,9.2,90,0.00,BKN,,0.00,WeatherDisplay:10.37,2013-01-13 15:45:00,
2013-01-13 10:46:00,63.5,60.5,30.11,SSW,205,10.4,10.4,90,0.00,BKN,,0.00,WeatherDisplay:10.37,2013-01-13 15:46:00,
2013-01-13 10:47:00,63.5,60.5,30.11,SSW,200,6.9,6.9,90,0.00,BKN,,0.00,WeatherDisplay:10.37,2013-01-13 15:47:00,
2013-01-13 10:50:00,63.6,60.3,30.11,WNW,293,12.7,12.7,89,0.00,BKN,,0.00,WeatherDisplay:10.37,2013-01-13 15:50:00,
2013-01-13 10:51:00,63.7,60.4,30.11,South,190,10.4,10.4,89,0.00,BKN,,0.00,WeatherDisplay:10.37,2013-01-13 15:51:00,
2013-01-13 10:53:00,63.7,60.4,30.11,SW,225,12.7,12.7,89,0.00,BKN,,0.00,WeatherDisplay:10.37,2013-01-13 15:53:00,
2013-01-13 10:55:00,63.7,60.4,30.11,West,262,10.4,10.4,89,0.00,BKN,,0.00,WeatherDisplay:10.37,2013-01-13 15:55:00,
2013-01-13 10:57:00,63.8,60.5,30.11,WSW,248,13.8,13.8,89,0.00,BKN,,0.00,WeatherDisplay:10.37,2013-01-13 15:57:00,
2013-01-13 10:58:00,63.8,60.5,30.11,SSW,205,10.4,10.4,89,0.00,BKN,,0.00,WeatherDisplay:10.37,2013-01-13 15:58:00,
2013-01-13 11:00:00,63.9,60.6,30.11,SE,145,7.0,7.0,89,0.00,CLR,,0.00,WeatherDisplay:10.37,2013-01-13 16:00:00,
2013-01-13 11:02:00,63.9,60.6,30.11,South,187,5.8,5.8,89,0.00,CLR,,0.00,WeatherDisplay:10.37,2013-01-13 16:02:00,
2013-01-13 11:03:00,63.9,60.6,30.11,SW,215,7.0,7.0,89,0.00,CLR,,0.00,WeatherDisplay:10.37,2013-01-13 16:03:00,
2013-01-13 11:05:00,63.9,60.6,30.10,WSW,238,7.0,7.0,89,0.00,CLR,,0.00,WeatherDisplay:10.37,2013-01-13 16:05:00,
2013-01-13 11:06:00,63.9,60.6,30.10,SE,133,3.5,3.5,89,0.00,CLR,,0.00,WeatherDisplay:10.37,2013-01-13 16:06:00,
2013-01-13 11:07:00,64.0,60.7,30.11,SW,222,9.2,9.2,89,0.00,CLR,,0.00,WeatherDisplay:10.37,2013-01-13 16:07:00,
2013-01-13 11:08:00,64.0,60.7,30.10,SW,228,16.1,16.1,89,0.00,CLR,,0.00,WeatherDisplay:10.37,2013-01-13 16:08:00,
2013-01-13 11:11:00,64.1,60.8,30.10,SSW,212,13.8,13.8,89,0.00,CLR,,0.00,WeatherDisplay:10.37,2013-01-13 16:11:00,
2013-01-13 11:12:00,64.2,60.9,30.10,WSW,256,6.9,6.9,89,0.00,CLR,,0.00,WeatherDisplay:10.37,2013-01-13 16:12:00,
2013-01-13 11:13:00,64.2,60.9,30.10,WSW,249,7.0,7.0,89,0.00,CLR,,0.00,WeatherDisplay:10.37,2013-01-13 16:13:00,
2013-01-13 11:16:00,64.6,61.0,30.10,SW,221,10.4,10.4,88,0.00,CLR,,0.00,WeatherDisplay:10.37,2013-01-13 16:16:00,
2013-01-13 11:18:00,64.7,61.1,30.10,SSW,203,6.9,6.9,88,0.00,CLR,,0.00,WeatherDisplay:10.37,2013-01-13 16:18:00,
2013-01-13 11:19:00,64.8,61.2,30.09,SSW,197,12.7,12.7,88,0.00,CLR,,0.00,WeatherDisplay:10.37,2013-01-13 16:19:00,
2013-01-13 11:22:00,65.1,61.1,30.10,South,180,10.4,10.4,87,0.00,CLR,,0.00,WeatherDisplay:10.37,2013-01-13 16:22:00,
2013-01-13 11:23:00,65.2,61.2,30.10,SSW,205,10.4,10.4,87,0.00,CLR,,0.00,WeatherDisplay:10.37,2013-01-13 16:23:00,
2013-01-13 11:24:00,65.3,61.3,30.10,SSW,208,12.7,12.7,87,0.00,CLR,,0.00,WeatherDisplay:10.37,2013-01-13 16:24:00,
2013-01-13 11:27:00,65.6,61.3,30.09,SW,221,12.7,12.7,86,0.00,CLR,,0.00,WeatherDisplay:10.37,2013-01-13 16:27:00,
2013-01-13 11:28:00,65.7,61.4,30.09,SW,224,10.4,10.4,86,0.00,CLR,,0.00,WeatherDisplay:10.37,2013-01-13 16:28:00,
2013-01-13 11:29:00,65.8,61.5,30.09,SSW,210,3.0,13.0,86,0.00,CLR,,0.00,WeatherDisplay:10.37,2013-01-13 16:29:00,
2013-01-13 11:30:00,65.9,61.6,30.09,South,190,9.2,9.2,86,0.00,CLR,,0.00,WeatherDisplay:10.37,2013-01-13 16:30:00,
2013-01-13 11:32:00,66.2,61.6,30.09,South,173,10.5,10.5,85,0.00,CLR,,0.00,WeatherDisplay:10.37,2013-01-13 16:32:00,
2013-01-13 11:33:00,66.3,61.7,30.09,SW,226,19.6,19.6,85,0.00,CLR,,0.00,WeatherDisplay:10.37,2013-01-13 16:33:00,
2013-01-13 11:34:00,66.4,61.4,30.08,SW,231,12.7,12.7,84,0.00,CLR,,0.00,WeatherDisplay:10.37,2013-01-13 16:34:00,
2013-01-13 11:35:00,66.4,61.8,30.08,South,171,12.7,12.7,85,0.00,CLR,,0.00,WeatherDisplay:10.37,2013-01-13 16:35:00,
2013-01-13 11:37:00,66.6,61.6,30.08,SSW,198,13.8,13.8,84,0.00,CLR,,0.00,WeatherDisplay:10.37,2013-01-13 16:37:00,
2013-01-13 11:38:00,66.6,61.6,30.08,South,172,12.7,12.7,84,0.00,CLR,,0.00,WeatherDisplay:10.37,2013-01-13 16:38:00,
2013-01-13 11:39:00,66.7,61.7,30.08,SSE,159,13.8,13.8,84,0.00,CLR,,0.00,WeatherDisplay:10.37,2013-01-13 16:39:00,
2013-01-13 11:40:00,66.8,61.8,30.08,SW,231,13.8,13.8,84,0.00,CLR,,0.00,WeatherDisplay:10.37,2013-01-13 16:40:00,
2013-01-13 11:42:00,66.9,61.9,30.08,SSE,156,9.2,9.2,84,0.00,CLR,,0.00,WeatherDisplay:10.37,2013-01-13 16:42:00,
2013-01-13 11:43:00,67.0,61.7,30.08,SSE,159,12.7,12.7,83,0.00,CLR,,0.00,WeatherDisplay:10.37,2013-01-13 16:43:00,
2013-01-13 11:45:00,67.1,61.8,30.08,SE,142,12.7,12.7,83,0.00,CLR,,0.00,WeatherDisplay:10.37,2013-01-13 16:45:00,
2013-01-13 11:47:00,67.1,61.8,30.08,SSW,210,13.8,13.8,83,0.00,CLR,,0.00,WeatherDisplay:10.37,2013-01-13 16:47:00,
2013-01-13 11:49:00,67.1,61.8,30.07,SSW,207,9.2,9.2,83,0.00,CLR,,0.00,WeatherDisplay:10.37,2013-01-13 16:49:00,
2013-01-13 11:50:00,67.1,61.8,30.08,SW,215,9.2,9.2,83,0.00,CLR,,0.00,WeatherDisplay:10.37,2013-01-13 16:50:00,
2013-01-13 11:51:00,67.1,61.8,30.08,ESE,117,9.2,9.2,83,0.00,CLR,,0.00,WeatherDisplay:10.37,2013-01-13 16:51:00,
2013-01-13 11:53:00,67.1,61.8,30.08,SSW,201,12.7,12.7,83,0.00,CLR,,0.00,WeatherDisplay:10.37,2013-01-13 16:53:00,
2013-01-13 11:54:00,67.1,61.8,30.08,SSE,167,12.7,12.7,83,0.00,CLR,,0.00,WeatherDisplay:10.37,2013-01-13 16:54:00,
2013-01-13 11:55:00,67.2,61.9,30.08,SW,230,8.7,8.7,83,0.00,CLR,,0.00,WeatherDisplay:10.37,2013-01-13 16:55:00,
2013-01-13 11:56:00,67.2,61.9,30.08,South,183,9.2,9.2,83,0.00,CLR,,0.00,WeatherDisplay:10.37,2013-01-13 16:56:00,
2013-01-13 11:58:00,67.1,61.8,30.07,SSE,165,5.8,5.8,83,0.00,CLR,,0.00,WeatherDisplay:10.37,2013-01-13 16:58:00,
2013-01-13 11:59:00,67.2,61.9,30.07,SSE,153,5.3,5.3,83,0.00,CLR,,0.00,WeatherDisplay:10.37,2013-01-13 16:59:00,
2013-01-13 12:00:00,67.2,61.9,30.07,NW,308,9.2,9.2,83,0.00,CLR,,0.00,WeatherDisplay:10.37,2013-01-13 17:00:00,
2013-01-13 12:01:00,67.2,61.9,30.07,SSW,207,9.2,9.2,83,0.00,CLR,,0.00,WeatherDisplay:10.37,2013-01-13 17:01:00,
2013-01-13 12:03:00,67.1,61.8,30.07,SE,145,3.5,3.5,83,0.00,CLR,,0.00,WeatherDisplay:10.37,2013-01-13 17:03:00,
2013-01-13 12:04:00,67.2,61.9,30.07,SSE,165,5.8,5.8,83,0.00,CLR,,0.00,WeatherDisplay:10.37,2013-01-13 17:04:00,
2013-01-13 12:06:00,67.2,61.9,30.07,ESE,115,10.5,10.5,83,0.00,CLR,,0.00,WeatherDisplay:10.37,2013-01-13 17:06:00,
2013-01-13 12:08:00,67.2,61.5,30.06,SSE,161,12.7,12.7,82,0.00,CLR,,0.00,WeatherDisplay:10.37,2013-01-13 17:08:00,
2013-01-13 12:10:00,67.2,61.9,30.06,South,184,12.7,12.7,83,0.00,CLR,,0.00,WeatherDisplay:10.37,2013-01-13 17:10:00,
2013-01-13 12:11:00,67.2,61.5,30.06,South,172,10.4,10.4,82,0.00,CLR,,0.00,WeatherDisplay:10.37,2013-01-13 17:11:00,
2013-01-13 12:13:00,67.3,62.0,30.06,SSW,201,16.1,16.1,83,0.00,CLR,,0.00,WeatherDisplay:10.37,2013-01-13 17:13:00,
2013-01-13 12:15:00,67.3,61.6,30.06,SSE,156,17.3,17.3,82,0.00,CLR,,0.00,WeatherDisplay:10.37,2013-01-13 17:15:00,
2013-01-13 12:16:00,67.5,61.8,30.06,SW,221,17.3,17.3,82,0.00,CLR,,0.00,WeatherDisplay:10.37,2013-01-13 17:16:00,
2013-01-13 12:19:00,67.6,61.9,30.06,SSE,159,9.2,9.2,82,0.00,CLR,,0.00,WeatherDisplay:10.37,2013-01-13 17:19:00,
2013-01-13 12:20:00,67.6,61.9,30.06,SSE,162,9.2,9.2,82,0.00,CLR,,0.00,WeatherDisplay:10.37,2013-01-13 17:20:00,
2013-01-13 12:22:00,67.7,62.0,30.06,SSW,210,10.4,10.4,82,0.00,CLR,,0.00,WeatherDisplay:10.37,2013-01-13 17:22:00,
2013-01-13 12:25:00,67.8,62.1,30.06,SW,231,5.8,5.8,82,0.00,CLR,,0.00,WeatherDisplay:10.37,2013-01-13 17:25:00,
2013-01-13 12:27:00,67.9,61.9,30.06,West,273,20.7,20.7,81,0.00,CLR,,0.00,WeatherDisplay:10.37,2013-01-13 17:27:00,
2013-01-13 12:30:00,68.0,61.9,30.06,SW,214,19.6,19.6,81,0.00,CLR,,0.00,WeatherDisplay:10.37,2013-01-13 17:30:00,
2013-01-13 12:32:00,67.9,61.9,30.06,SW,221,19.6,19.6,81,0.00,CLR,,0.00,WeatherDisplay:10.37,2013-01-13 17:32:00,
2013-01-13 12:35:00,67.8,61.8,30.06,SSW,206,10.4,10.4,81,0.00,CLR,,0.00,WeatherDisplay:10.37,2013-01-13 17:35:00,
2013-01-13 12:37:00,67.7,62.0,30.06,South,173,9.2,9.2,82,0.00,CLR,,0.00,WeatherDisplay:10.37,2013-01-13 17:37:00,
2013-01-13 12:40:00,67.7,62.0,30.06,SSE,153,3.5,3.5,82,0.00,CLR,,0.00,WeatherDisplay:10.37,2013-01-13 17:40:00,
2013-01-13 12:42:00,67.7,62.0,30.06,SW,231,10.4,10.4,82,0.00,CLR,,0.00,WeatherDisplay:10.37,2013-01-13 17:42:00,
2013-01-13 12:45:00,67.8,61.8,30.06,SSW,200,13.8,13.8,81,0.00,CLR,,0.00,WeatherDisplay:10.37,2013-01-13 17:45:00,
2013-01-13 12:47:00,67.7,62.0,30.06,SSW,207,9.2,9.2,82,0.00,CLR,,0.00,WeatherDisplay:10.37,2013-01-13 17:47:00,
2013-01-13 12:50:00,67.7,62.0,30.05,SSW,198,10.4,10.4,82,0.00,CLR,,0.00,WeatherDisplay:10.37,2013-01-13 17:50:00,
2013-01-13 12:52:00,67.6,61.6,30.05,SSW,203,16.1,16.1,81,0.00,CLR,,0.00,WeatherDisplay:10.37,2013-01-13 17:52:00,
2013-01-13 12:56:00,67.4,61.7,30.05,WSW,256,10.4,10.4,82,0.00,CLR,,0.00,WeatherDisplay:10.37,2013-01-13 17:56:00,
2013-01-13 12:57:00,67.3,61.6,30.05,South,169,6.9,6.9,82,0.00,CLR,,0.00,WeatherDisplay:10.37,2013-01-13 17:57:00,
2013-01-13 12:58:00,67.3,61.6,30.05,SSE,153,6.9,6.9,82,0.00,CLR,,0.00,WeatherDisplay:10.37,2013-01-13 17:58:00,
2013-01-13 13:01:00,67.2,61.9,30.05,SW,222,9.2,9.2,83,0.00,FEW,,0.00,WeatherDisplay:10.37,2013-01-13 18:01:00,
2013-01-13 13:02:00,67.1,61.8,30.05,South,184,7.0,7.0,83,0.00,FEW,,0.00,WeatherDisplay:10.37,2013-01-13 18:02:00,
2013-01-13 13:03:00,67.1,61.8,30.05,WSW,245,6.9,6.9,83,0.00,FEW,,0.00,WeatherDisplay:10.37,2013-01-13 18:03:00,
2013-01-13 13:06:00,66.9,61.6,30.05,SSW,204,3.5,3.5,83,0.00,FEW,,0.00,WeatherDisplay:10.37,2013-01-13 18:06:00,
2013-01-13 13:08:00,66.9,61.9,30.05,West,262,3.5,3.5,84,0.00,FEW,,0.00,WeatherDisplay:10.37,2013-01-13 18:08:00,
2013-01-13 13:11:00,66.8,61.8,30.05,SSW,207,5.3,5.3,84,0.00,FEW,,0.00,WeatherDisplay:10.37,2013-01-13 18:11:00,
2013-01-13 13:13:00,66.9,61.9,30.05,South,191,5.8,5.8,84,0.00,FEW,,0.00,WeatherDisplay:10.37,2013-01-13 18:13:00,
2013-01-13 13:14:00,66.9,61.9,30.05,SSW,203,3.5,3.5,84,0.00,FEW,,0.00,WeatherDisplay:10.37,2013-01-13 18:14:00,
2013-01-13 13:16:00,67.0,62.0,30.05,South,174,3.5,3.5,84,0.00,FEW,,0.00,WeatherDisplay:10.37,2013-01-13 18:16:00,
2013-01-13 13:18:00,67.1,62.1,30.04,SE,142,5.3,5.3,84,0.00,FEW,,0.00,WeatherDisplay:10.37,2013-01-13 18:18:00,
2013-01-13 13:20:00,67.1,61.8,30.04,SW,218,10.4,10.4,83,0.00,FEW,,0.00,WeatherDisplay:10.37,2013-01-13 18:20:00,
2013-01-13 13:21:00,67.2,61.9,30.04,SSW,212,3.5,3.5,83,0.00,FEW,,0.00,WeatherDisplay:10.37,2013-01-13 18:21:00,
2013-01-13 13:23:00,67.3,62.0,30.04,SSE,150,8.7,8.7,83,0.00,FEW,,0.00,WeatherDisplay:10.37,2013-01-13 18:23:00,
2013-01-13 13:25:00,67.5,61.8,30.04,WNW,293,10.4,10.4,82,0.00,FEW,,0.00,WeatherDisplay:10.37,2013-01-13 18:25:00,
2013-01-13 13:26:00,67.5,62.2,30.04,SSW,210,6.9,6.9,83,0.00,FEW,,0.00,WeatherDisplay:10.37,2013-01-13 18:26:00,
2013-01-13 13:28:00,67.6,61.9,30.04,SSW,198,9.2,9.2,82,0.00,FEW,,0.00,WeatherDisplay:10.37,2013-01-13 18:28:00,
2013-01-13 13:30:00,67.8,62.1,30.05,South,191,3.5,3.5,82,0.00,FEW,,0.00,WeatherDisplay:10.37,2013-01-13 18:30:00,
2013-01-13 13:31:00,67.9,62.2,30.04,WNW,285,12.7,12.7,82,0.00,FEW,,0.00,WeatherDisplay:10.37,2013-01-13 18:31:00,
2013-01-13 13:33:00,67.9,61.9,30.04,SSE,158,13.8,13.8,81,0.00,FEW,,0.00,WeatherDisplay:10.37,2013-01-13 18:33:00,
2013-01-13 13:34:00,68.0,61.9,30.04,SSE,158,13.8,13.8,81,0.00,FEW,,0.00,WeatherDisplay:10.37,2013-01-13 18:34:00,
2013-01-13 13:35:00,68.1,62.0,30.04,SW,221,5.8,5.8,81,0.00,FEW,,0.00,WeatherDisplay:10.37,2013-01-13 18:35:00,
2013-01-13 13:37:00,68.2,62.1,30.04,WSW,247,6.9,6.9,81,0.00,FEW,,0.00,WeatherDisplay:10.37,2013-01-13 18:37:00,
2013-01-13 13:39:00,68.4,62.3,30.04,SW,229,8.7,8.7,81,0.00,FEW,,0.00,WeatherDisplay:10.37,2013-01-13 18:39:00,
2013-01-13 13:41:00,68.6,62.2,30.04,SW,233,13.8,13.8,80,0.00,FEW,,0.00,WeatherDisplay:10.37,2013-01-13 18:41:00,
2013-01-13 13:42:00,68.7,62.3,30.05,SSW,201,9.2,9.2,80,0.00,FEW,,0.00,WeatherDisplay:10.37,2013-01-13 18:42:00,
2013-01-13 13:44:00,68.8,62.0,30.05,SW,215,5.8,5.8,79,0.00,FEW,,0.00,WeatherDisplay:10.37,2013-01-13 18:44:00,
2013-01-13 13:46:00,69.1,62.3,30.05,SW,222,10.4,10.4,79,0.00,FEW,,0.00,WeatherDisplay:10.37,2013-01-13 18:46:00,
2013-01-13 13:48:00,69.2,62.0,30.05,WSW,242,17.5,17.5,78,0.00,FEW,,0.00,WeatherDisplay:10.37,2013-01-13 18:48:00,
2013-01-13 13:49:00,69.2,61.7,30.04,SSE,152,13.8,13.8,77,0.00,FEW,,0.00,WeatherDisplay:10.37,2013-01-13 18:49:00,
2013-01-13 13:50:00,69.2,62.0,30.04,SW,224,13.8,13.8,78,0.00,FEW,,0.00,WeatherDisplay:10.37,2013-01-13 18:50:00,
2013-01-13 13:51:00,69.2,62.0,30.04,SE,145,12.7,12.7,78,0.00,FEW,,0.00,WeatherDisplay:10.37,2013-01-13 18:51:00,
2013-01-13 13:53:00,69.1,61.9,30.04,SSW,201,7.0,7.0,78,0.00,FEW,,0.00,WeatherDisplay:10.37,2013-01-13 18:53:00,
2013-01-13 13:55:00,69.2,61.7,30.04,SSE,156,7.0,7.2,77,0.00,FEW,,0.00,WeatherDisplay:10.37,2013-01-13 18:55:00,
2013-01-13 13:56:00,69.2,61.7,30.04,SW,235,17.3,17.3,77,0.00,FEW,,0.00,WeatherDisplay:10.37,2013-01-13 18:56:00,
2013-01-13 13:58:00,69.4,61.9,30.04,SW,231,12.7,12.7,77,0.00,FEW,,0.00,WeatherDisplay:10.37,2013-01-13 18:58:00,
2013-01-13 14:00:00,69.7,62.2,30.04,SSW,208,22.8,22.8,77,0.00,FEW,,0.00,WeatherDisplay:10.37,2013-01-13 19:00:00,
2013-01-13 14:01:00,69.8,61.9,30.03,SSE,152,27.6,27.6,76,0.00,FEW,,0.00,WeatherDisplay:10.37,2013-01-13 19:01:00,
2013-01-13 14:03:00,70.2,61.9,30.03,SSE,156,13.8,13.8,75,0.00,FEW,,0.00,WeatherDisplay:10.37,2013-01-13 19:03:00,
2013-01-13 14:05:00,70.3,62.0,30.03,South,191,10.4,10.4,75,0.00,FEW,,0.00,WeatherDisplay:10.37,2013-01-13 19:05:00,
2013-01-13 14:06:00,70.4,61.7,30.03,SE,143,17.3,17.3,74,0.00,FEW,,0.00,WeatherDisplay:10.37,2013-01-13 19:06:00,
2013-01-13 14:07:00,70.4,61.7,30.04,SSW,193,17.3,17.3,74,0.00,FEW,,0.00,WeatherDisplay:10.37,2013-01-13 19:07:00,
2013-01-13 14:09:00,70.3,61.6,30.03,South,184,12.7,12.7,74,0.00,FEW,,0.00,WeatherDisplay:10.37,2013-01-13 19:09:00,
2013-01-13 14:10:00,70.3,61.6,30.04,SW,218,9.2,9.2,74,0.00,FEW,,0.00,WeatherDisplay:10.37,2013-01-13 19:10:00,
2013-01-13 14:11:00,70.3,62.0,30.04,South,175,9.2,9.2,75,0.00,FEW,,0.00,WeatherDisplay:10.37,2013-01-13 19:11:00,
2013-01-13 14:12:00,70.3,62.0,30.03,SSW,212,13.8,13.8,75,0.00,FEW,,0.00,WeatherDisplay:10.37,2013-01-13 19:12:00,
2013-01-13 14:14:00,70.4,62.1,30.03,SE,146,12.7,12.7,75,0.00,FEW,,0.00,WeatherDisplay:10.37,2013-01-13 19:14:00,
2013-01-13 14:16:00,70.6,61.9,30.03,SW,231,13.8,13.8,74,0.00,FEW,,0.00,WeatherDisplay:10.37,2013-01-13 19:16:00,
2013-01-13 14:18:00,70.6,61.9,30.03,WSW,243,12.7,12.7,74,0.00,FEW,,0.00,WeatherDisplay:10.37,2013-01-13 19:18:00,
2013-01-13 14:19:00,70.6,61.9,30.03,WSW,249,9.2,9.2,74,0.00,FEW,,0.00,WeatherDisplay:10.37,2013-01-13 19:19:00,
2013-01-13 14:21:00,70.6,61.5,30.04,SSW,208,10.4,10.4,73,0.00,FEW,,0.00,WeatherDisplay:10.37,2013-01-13 19:21:00,
2013-01-13 14:22:00,70.6,61.5,30.03,SSE,150,10.5,10.5,73,0.00,FEW,,0.00,WeatherDisplay:10.37,2013-01-13 19:22:00,
2013-01-13 14:23:00,70.5,61.4,30.04,SW,226,13.8,13.8,73,0.00,FEW,,0.00,WeatherDisplay:10.37,2013-01-13 19:23:00,
2013-01-13 14:25:00,70.5,61.8,30.04,WSW,250,10.4,10.4,74,0.00,FEW,,0.00,WeatherDisplay:10.37,2013-01-13 19:25:00,
2013-01-13 14:26:00,70.5,61.4,30.04,South,181,12.7,12.7,73,0.00,FEW,,0.00,WeatherDisplay:10.37,2013-01-13 19:26:00,
2013-01-13 14:27:00,70.5,61.4,30.04,SSE,155,12.7,12.7,73,0.00,FEW,,0.00,WeatherDisplay:10.37,2013-01-13 19:27:00,
2013-01-13 14:28:00,70.5,61.4,30.03,WSW,246,17.3,17.3,73,0.00,FEW,,0.00,WeatherDisplay:10.37,2013-01-13 19:28:00,
2013-01-13 14:30:00,70.4,61.3,30.03,WSW,253,17.5,17.5,73,0.00,FEW,,0.00,WeatherDisplay:10.37,2013-01-13 19:30:00,
2013-01-13 14:31:00,70.3,61.2,30.03,SW,221,10.4,10.4,73,0.00,FEW,,0.00,WeatherDisplay:10.37,2013-01-13 19:31:00,
2013-01-13 14:32:00,70.3,61.2,30.03,SE,142,10.4,10.4,73,0.00,FEW,,0.00,WeatherDisplay:10.37,2013-01-13 19:32:00,
2013-01-13 14:33:00,70.3,61.6,30.04,SSW,209,12.3,12.3,74,0.00,FEW,,0.00,WeatherDisplay:10.37,2013-01-13 19:33:00,
2013-01-13 14:35:00,70.3,61.2,30.04,SE,146,12.7,12.7,73,0.00,FEW,,0.00,WeatherDisplay:10.37,2013-01-13 19:35:00,
2013-01-13 14:36:00,70.3,61.6,30.04,SW,230,10.4,10.4,74,0.00,FEW,,0.00,WeatherDisplay:10.37,2013-01-13 19:36:00,
2013-01-13 14:37:00,70.3,61.2,30.04,WSW,242,10.4,10.4,73,0.00,FEW,,0.00,WeatherDisplay:10.37,2013-01-13 19:37:00,
2013-01-13 14:38:00,70.2,61.5,30.04,WSW,246,9.2,9.2,74,0.00,FEW,,0.00,WeatherDisplay:10.37,2013-01-13 19:38:00,
2013-01-13 14:40:00,70.2,61.5,30.04,SSW,203,6.9,6.9,74,0.00,FEW,,0.00,WeatherDisplay:10.37,2013-01-13 19:40:00,
2013-01-13 14:41:00,70.2,61.5,30.04,SSW,207,6.9,6.9,74,0.00,FEW,,0.00,WeatherDisplay:10.37,2013-01-13 19:41:00,
2013-01-13 14:42:00,70.3,61.6,30.04,SW,225,12.7,12.7,74,0.00,FEW,,0.00,WeatherDisplay:10.37,2013-01-13 19:42:00,
2013-01-13 14:43:00,70.3,61.6,30.04,SSW,213,10.4,10.4,74,0.00,FEW,,0.00,WeatherDisplay:10.37,2013-01-13 19:43:00,
2013-01-13 14:45:00,70.4,61.7,30.04,SSE,150,7.0,7.0,74,0.00,FEW,,0.00,WeatherDisplay:10.37,2013-01-13 19:45:00,
2013-01-13 14:46:00,70.5,61.8,30.04,South,190,10.4,10.4,74,0.00,FEW,,0.00,WeatherDisplay:10.37,2013-01-13 19:46:00,
2013-01-13 14:48:00,70.7,61.6,30.04,SSW,198,12.7,12.7,73,0.00,FEW,,0.00,WeatherDisplay:10.37,2013-01-13 19:48:00,
2013-01-13 14:50:00,70.9,61.8,30.04,WSW,252,10.4,10.4,73,0.00,FEW,,0.00,WeatherDisplay:10.37,2013-01-13 19:50:00,
2013-01-13 14:51:00,71.1,62.0,30.04,WNW,300,10.4,10.4,73,0.00,FEW,,0.00,WeatherDisplay:10.37,2013-01-13 19:51:00,
2013-01-13 14:53:00,71.2,61.7,30.04,SSW,195,10.4,10.4,72,0.00,FEW,,0.00,WeatherDisplay:10.37,2013-01-13 19:53:00,
2013-01-13 14:55:00,71.1,61.6,30.04,SW,225,12.7,12.7,72,0.00,FEW,,0.00,WeatherDisplay:10.37,2013-01-13 19:55:00,
2013-01-13 14:56:00,71.1,61.6,30.04,South,172,9.2,9.2,72,0.00,FEW,,0.00,WeatherDisplay:10.37,2013-01-13 19:56:00,
2013-01-13 14:57:00,71.1,61.6,30.04,SW,228,10.4,10.4,72,0.00,FEW,,0.00,WeatherDisplay:10.37,2013-01-13 19:57:00,
2013-01-13 14:58:00,71.1,61.6,30.04,SSW,207,10.4,10.4,72,0.00,FEW,,0.00,WeatherDisplay:10.37,2013-01-13 19:58:00,
2013-01-13 15:00:00,70.9,61.4,30.04,SW,218,6.9,6.9,72,0.00,BKN,,0.00,WeatherDisplay:10.37,2013-01-13 20:00:00,
2013-01-13 15:01:00,70.9,61.4,30.04,SW,215,6.9,6.9,72,0.00,BKN,,0.00,WeatherDisplay:10.37,2013-01-13 20:01:00,
2013-01-13 15:02:00,70.9,61.8,30.04,South,170,9.2,9.2,73,0.00,BKN,,0.00,WeatherDisplay:10.37,2013-01-13 20:02:00,
2013-01-13 15:03:00,70.9,61.8,30.04,West,263,7.0,7.0,73,0.00,BKN,,0.00,WeatherDisplay:10.37,2013-01-13 20:03:00,
2013-01-13 15:06:00,71.1,61.6,30.04,SW,233,6.9,6.9,72,0.00,BKN,,0.00,WeatherDisplay:10.37,2013-01-13 20:06:00,
2013-01-13 15:07:00,71.1,61.6,30.04,SW,217,10.4,10.4,72,0.00,BKN,,0.00,WeatherDisplay:10.37,2013-01-13 20:07:00,
2013-01-13 15:09:00,71.1,61.6,30.05,WSW,257,9.2,9.2,72,0.00,BKN,,0.00,WeatherDisplay:10.37,2013-01-13 20:09:00,
2013-01-13 15:11:00,71.1,61.2,30.04,South,184,10.4,10.4,71,0.00,BKN,,0.00,WeatherDisplay:10.37,2013-01-13 20:11:00,
2013-01-13 15:12:00,71.1,61.6,30.04,SSE,152,13.8,13.8,72,0.00,BKN,,0.00,WeatherDisplay:10.37,2013-01-13 20:12:00,
2013-01-13 15:14:00,71.2,61.3,30.04,WNW,298,13.8,13.8,71,0.00,BKN,,0.00,WeatherDisplay:10.37,2013-01-13 20:14:00,
2013-01-13 15:16:00,71.3,61.8,30.04,SSW,203,16.1,16.1,72,0.00,BKN,,0.00,WeatherDisplay:10.37,2013-01-13 20:16:00,
2013-01-13 15:17:00,71.4,61.5,30.04,SW,232,8.7,8.7,71,0.00,BKN,,0.00,WeatherDisplay:10.37,2013-01-13 20:17:00,
2013-01-13 15:19:00,71.5,61.6,30.04,SSW,207,9.2,9.2,71,0.00,BKN,,0.00,WeatherDisplay:10.37,2013-01-13 20:19:00,
2013-01-13 15:21:00,71.5,61.6,30.04,WSW,243,12.3,12.3,71,0.00,BKN,,0.00,WeatherDisplay:10.37,2013-01-13 20:21:00,
2013-01-13 15:22:00,71.5,61.6,30.04,SSW,210,9.2,9.2,71,0.00,BKN,,0.00,WeatherDisplay:10.37,2013-01-13 20:22:00,
2013-01-13 15:23:00,71.4,61.5,30.04,SSW,200,12.7,12.7,71,0.00,BKN,,0.00,WeatherDisplay:10.37,2013-01-13 20:23:00,
2013-01-13 15:24:00,71.3,61.4,30.04,SSE,165,6.9,6.9,71,0.00,BKN,,0.00,WeatherDisplay:10.37,2013-01-13 20:24:00,
2013-01-13 15:27:00,71.2,61.3,30.04,SSW,206,6.9,6.9,71,0.00,BKN,,0.00,WeatherDisplay:10.37,2013-01-13 20:27:00,
2013-01-13 15:28:00,71.2,61.3,30.05,SSW,197,16.1,16.1,71,0.00,BKN,,0.00,WeatherDisplay:10.37,2013-01-13 20:28:00,
2013-01-13 15:30:00,71.2,61.3,30.05,SSW,208,12.7,12.7,71,0.00,BKN,,0.00,WeatherDisplay:10.37,2013-01-13 20:30:00,
2013-01-13 15:32:00,71.1,61.2,30.05,SW,224,9.2,9.2,71,0.00,BKN,,0.00,WeatherDisplay:10.37,2013-01-13 20:32:00,
2013-01-13 15:34:00,71.1,61.2,30.05,SE,141,12.7,12.7,71,0.00,BKN,,0.00,WeatherDisplay:10.37,2013-01-13 20:34:00,
2013-01-13 15:35:00,71.1,61.2,30.05,SW,220,10.4,10.4,71,0.00,BKN,,0.00,WeatherDisplay:10.37,2013-01-13 20:35:00,
2013-01-13 15:37:00,71.2,61.3,30.05,SSE,150,9.2,9.2,71,0.00,BKN,,0.00,WeatherDisplay:10.37,2013-01-13 20:37:00,
2013-01-13 15:39:00,71.3,61.4,30.05,SW,218,10.4,10.4,71,0.00,BKN,,0.00,WeatherDisplay:10.37,2013-01-13 20:39:00,
2013-01-13 15:40:00,71.4,61.5,30.05,SSW,197,10.4,10.4,71,0.00,BKN,,0.00,WeatherDisplay:10.37,2013-01-13 20:40:00,
2013-01-13 15:42:00,71.4,61.5,30.05,South,180,6.9,6.9,71,0.00,BKN,,0.00,WeatherDisplay:10.37,2013-01-13 20:42:00,
2013-01-13 15:43:00,71.4,61.5,30.05,SW,215,6.9,6.9,71,0.00,BKN,,0.00,WeatherDisplay:10.37,2013-01-13 20:43:00,
2013-01-13 15:44:00,71.4,61.1,30.05,South,191,10.4,10.4,70,0.00,BKN,,0.00,WeatherDisplay:10.37,2013-01-13 20:44:00,
2013-01-13 15:45:00,71.4,61.1,30.05,SE,139,13.8,13.8,70,0.00,BKN,,0.00,WeatherDisplay:10.37,2013-01-13 20:45:00,
2013-01-13 15:47:00,71.4,61.1,30.05,SSW,201,9.2,9.2,70,0.00,BKN,,0.00,WeatherDisplay:10.37,2013-01-13 20:47:00,
2013-01-13 15:48:00,71.4,61.1,30.05,SW,221,9.2,9.2,70,0.00,BKN,,0.00,WeatherDisplay:10.37,2013-01-13 20:48:00,
2013-01-13 15:49:00,71.4,61.5,30.05,SW,219,5.3,5.3,71,0.00,BKN,,0.00,WeatherDisplay:10.37,2013-01-13 20:49:00,
2013-01-13 15:51:00,71.3,61.0,30.05,SSE,155,9.2,9.2,70,0.00,BKN,,0.00,WeatherDisplay:10.37,2013-01-13 20:51:00,
2013-01-13 15:52:00,71.3,61.0,30.05,SW,224,9.2,9.2,70,0.00,BKN,,0.00,WeatherDisplay:10.37,2013-01-13 20:52:00,
2013-01-13 15:53:00,71.3,61.4,30.05,SSW,194,6.9,6.9,71,0.00,BKN,,0.00,WeatherDisplay:10.37,2013-01-13 20:53:00,
2013-01-13 15:54:00,71.3,61.0,30.05,SW,220,9.2,9.2,70,0.00,BKN,,0.00,WeatherDisplay:10.37,2013-01-13 20:54:00,
2013-01-13 15:56:00,71.2,61.3,30.05,SSE,148,6.9,6.9,71,0.00,BKN,,0.00,WeatherDisplay:10.37,2013-01-13 20:56:00,
2013-01-13 15:58:00,71.2,60.9,30.05,SW,236,10.4,10.4,70,0.00,BKN,,0.00,WeatherDisplay:10.37,2013-01-13 20:58:00,
2013-01-13 15:59:00,71.1,61.2,30.05,WSW,250,9.2,9.2,71,0.00,BKN,,0.00,WeatherDisplay:10.37,2013-01-13 20:59:00,
2013-01-13 16:00:00,71.1,60.8,30.05,SSW,203,6.9,6.9,70,0.00,BKN,,0.00,WeatherDisplay:10.37,2013-01-13 21:00:00,
2013-01-13 16:01:00,71.1,61.2,30.05,SSW,203,6.9,6.9,71,0.00,FEW,,0.00,WeatherDisplay:10.37,2013-01-13 21:01:00,
2013-01-13 16:03:00,71.1,61.2,30.05,SW,228,9.2,9.2,71,0.00,FEW,,0.00,WeatherDisplay:10.37,2013-01-13 21:03:00,
2013-01-13 16:04:00,71.0,61.1,30.05,SSW,203,9.2,9.2,71,0.00,FEW,,0.00,WeatherDisplay:10.37,2013-01-13 21:04:00,
2013-01-13 16:05:00,71.0,61.1,30.05,SE,145,5.8,5.8,71,0.00,FEW,,0.00,WeatherDisplay:10.37,2013-01-13 21:05:00,
2013-01-13 16:06:00,71.0,61.1,30.05,SSE,167,6.9,6.9,71,0.00,FEW,,0.00,WeatherDisplay:10.37,2013-01-13 21:06:00,
2013-01-13 16:08:00,70.9,61.0,30.05,SW,217,5.8,5.8,71,0.00,FEW,,0.00,WeatherDisplay:10.37,2013-01-13 21:08:00,
2013-01-13 16:09:00,70.9,61.0,30.05,SSE,159,5.8,5.8,71,0.00,FEW,,0.00,WeatherDisplay:10.37,2013-01-13 21:09:00,
2013-01-13 16:10:00,70.9,61.4,30.04,SW,222,3.5,3.5,72,0.00,FEW,,0.00,WeatherDisplay:10.37,2013-01-13 21:10:00,
2013-01-13 16:11:00,70.9,61.4,30.05,SSE,156,3.5,3.5,72,0.00,FEW,,0.00,WeatherDisplay:10.37,2013-01-13 21:11:00,
2013-01-13 16:14:00,70.8,61.3,30.05,SSW,195,6.9,6.9,72,0.00,FEW,,0.00,WeatherDisplay:10.37,2013-01-13 21:14:00,
2013-01-13 16:15:00,70.8,61.3,30.04,SSW,205,8.7,8.7,72,0.00,FEW,,0.00,WeatherDisplay:10.37,2013-01-13 21:15:00,
2013-01-13 16:16:00,70.7,61.2,30.04,South,191,9.2,9.2,72,0.00,FEW,,0.00,WeatherDisplay:10.37,2013-01-13 21:16:00,
2013-01-13 16:19:00,70.7,61.2,30.04,West,269,5.3,5.3,72,0.00,FEW,,0.00,WeatherDisplay:10.37,2013-01-13 21:19:00,
2013-01-13 16:21:00,70.6,61.1,30.04,SSE,152,5.8,5.8,72,0.00,FEW,,0.00,WeatherDisplay:10.37,2013-01-13 21:21:00,
2013-01-13 16:24:00,70.5,61.0,30.04,South,183,6.9,6.9,72,0.00,FEW,,0.00,WeatherDisplay:10.37,2013-01-13 21:24:00,
2013-01-13 16:26:00,70.4,60.9,30.04,West,262,5.8,5.8,72,0.00,FEW,,0.00,WeatherDisplay:10.37,2013-01-13 21:26:00,
2013-01-13 16:27:00,70.4,60.9,30.04,West,262,5.8,5.8,72,0.00,FEW,,0.00,WeatherDisplay:10.37,2013-01-13 21:27:00,
2013-01-13 16:29:00,70.3,61.2,30.04,WSW,253,0.0,0.0,73,0.00,FEW,,0.00,WeatherDisplay:10.37,2013-01-13 21:29:00,
2013-01-13 16:30:00,70.3,61.2,30.04,WSW,253,0.0,0.0,73,0.00,FEW,,0.00,WeatherDisplay:10.37,2013-01-13 21:30:00,
2013-01-13 16:31:00,70.2,61.1,30.04,SW,229,2.3,2.3,73,0.00,FEW,,0.00,WeatherDisplay:10.37,2013-01-13 21:31:00,
2013-01-13 16:32:00,70.2,61.1,30.04,SE,136,9.2,9.2,73,0.00,FEW,,0.00,WeatherDisplay:10.37,2013-01-13 21:32:00,
2013-01-13 16:35:00,70.0,60.9,30.04,South,186,3.5,3.5,73,0.00,FEW,,0.00,WeatherDisplay:10.37,2013-01-13 21:35:00,
2013-01-13 16:36:00,70.0,60.9,30.04,SSW,201,3.5,3.5,73,0.00,FEW,,0.00,WeatherDisplay:10.37,2013-01-13 21:36:00,
2013-01-13 16:38:00,69.9,60.8,30.04,SW,216,3.5,3.5,73,0.00,FEW,,0.00,WeatherDisplay:10.37,2013-01-13 21:38:00,
2013-01-13 16:40:00,69.9,61.2,30.05,SW,218,1.8,1.8,74,0.00,FEW,,0.00,WeatherDisplay:10.37,2013-01-13 21:40:00,
2013-01-13 16:42:00,69.8,61.1,30.05,SW,218,2.3,0.0,74,0.00,FEW,,0.00,WeatherDisplay:10.37,2013-01-13 21:42:00,
2013-01-13 16:43:00,69.7,61.0,30.05,SW,218,2.3,2.3,74,0.00,FEW,,0.00,WeatherDisplay:10.37,2013-01-13 21:43:00,
2013-01-13 16:45:00,69.6,60.9,30.04,SW,218,2.3,2.3,74,0.00,FEW,,0.00,WeatherDisplay:10.37,2013-01-13 21:45:00,
2013-01-13 16:47:00,69.4,61.1,30.04,SW,218,2.3,2.3,75,0.00,FEW,,0.00,WeatherDisplay:10.37,2013-01-13 21:47:00,
2013-01-13 16:49:00,69.4,61.1,30.04,SSW,212,3.5,3.5,75,0.00,FEW,,0.00,WeatherDisplay:10.37,2013-01-13 21:49:00,
2013-01-13 16:50:00,69.3,61.0,30.04,SSW,210,3.5,3.5,75,0.00,FEW,,0.00,WeatherDisplay:10.37,2013-01-13 21:50:00,
2013-01-13 16:51:00,69.3,61.0,30.05,SSW,210,2.3,2.3,75,0.00,FEW,,0.00,WeatherDisplay:10.37,2013-01-13 21:51:00,
2013-01-13 16:52:00,69.2,60.9,30.05,SSW,210,0.0,0.0,75,0.00,FEW,,0.00,WeatherDisplay:10.37,2013-01-13 21:52:00,
2013-01-13 16:54:00,69.1,61.2,30.05,SSW,210,0.0,0.0,76,0.00,FEW,,0.00,WeatherDisplay:10.37,2013-01-13 21:54:00,
2013-01-13 16:55:00,69.0,61.1,30.05,SSW,210,0.0,0.0,76,0.00,FEW,,0.00,WeatherDisplay:10.37,2013-01-13 21:55:00,
2013-01-13 16:57:00,68.9,61.0,30.05,SSW,210,0.0,0.0,76,0.00,FEW,,0.00,WeatherDisplay:10.37,2013-01-13 21:57:00,
2013-01-13 16:58:00,68.8,60.9,30.05,SSW,203,1.8,1.8,76,0.00,FEW,,0.00,WeatherDisplay:10.37,2013-01-13 21:58:00,
2013-01-13 16:59:00,68.8,60.9,30.05,SSW,201,2.3,2.3,76,0.00,FEW,,0.00,WeatherDisplay:10.37,2013-01-13 21:59:00,
2013-01-13 17:01:00,68.7,60.8,30.04,SSW,201,0.0,0.0,76,0.00,CLR,,0.00,WeatherDisplay:10.37,2013-01-13 22:01:00,
2013-01-13 17:02:00,68.6,61.1,30.04,SSW,201,0.0,0.1,77,0.00,CLR,,0.00,WeatherDisplay:10.37,2013-01-13 22:02:00,
2013-01-13 17:03:00,68.6,61.1,30.05,South,188,2.3,2.3,77,0.00,CLR,,0.00,WeatherDisplay:10.37,2013-01-13 22:03:00,
2013-01-13 17:04:00,68.5,61.0,30.05,South,188,3.5,3.5,77,0.00,CLR,,0.00,WeatherDisplay:10.37,2013-01-13 22:04:00,
2013-01-13 17:06:00,68.4,60.9,30.04,South,189,0.0,0.0,77,0.00,CLR,,0.00,WeatherDisplay:10.37,2013-01-13 22:06:00,
2013-01-13 17:07:00,68.4,60.9,30.04,South,188,0.0,0.0,77,0.00,CLR,,0.00,WeatherDisplay:10.37,2013-01-13 22:07:00,
2013-01-13 17:08:00,68.4,60.9,30.04,South,188,0.0,0.0,77,0.00,CLR,,0.00,WeatherDisplay:10.37,2013-01-13 22:08:00,
2013-01-13 17:09:00,68.3,60.8,30.05,South,191,0.0,0.0,77,0.00,CLR,,0.00,WeatherDisplay:10.37,2013-01-13 22:09:00,
2013-01-13 17:11:00,68.2,60.7,30.05,South,191,1.8,1.8,77,0.00,CLR,,0.00,WeatherDisplay:10.37,2013-01-13 22:11:00,
2013-01-13 17:12:00,68.1,61.0,30.05,South,191,0.0,0.0,78,0.00,CLR,,0.00,WeatherDisplay:10.37,2013-01-13 22:12:00,
2013-01-13 17:13:00,68.1,61.0,30.05,South,191,0.0,0.0,78,0.00,CLR,,0.00,WeatherDisplay:10.37,2013-01-13 22:13:00,
2013-01-13 17:14:00,67.9,60.8,30.05,South,191,0.0,0.0,78,0.00,CLR,,0.00,WeatherDisplay:10.37,2013-01-13 22:14:00,
2013-01-13 17:16:00,67.8,61.0,30.05,South,191,0.0,0.0,79,0.00,CLR,,0.00,WeatherDisplay:10.37,2013-01-13 22:16:00,
2013-01-13 17:17:00,67.7,61.0,30.05,South,191,0.0,0.0,79,0.00,CLR,,0.00,WeatherDisplay:10.37,2013-01-13 22:17:00,
2013-01-13 17:18:00,67.7,61.0,30.05,South,191,0.0,0.0,79,0.00,CLR,,0.00,WeatherDisplay:10.37,2013-01-13 22:18:00,
2013-01-13 17:20:00,67.5,60.8,30.05,South,191,0.0,0.0,79,0.00,CLR,,0.00,WeatherDisplay:10.37,2013-01-13 22:20:00,
2013-01-13 17:21:00,67.5,61.1,30.05,South,191,0.0,0.0,80,0.00,CLR,,0.00,WeatherDisplay:10.37,2013-01-13 22:21:00,
2013-01-13 17:22:00,67.3,60.9,30.05,South,191,0.0,0.0,80,0.00,CLR,,0.00,WeatherDisplay:10.37,2013-01-13 22:22:00,
2013-01-13 17:23:00,67.3,60.9,30.05,South,191,0.0,0.0,80,0.00,CLR,,0.00,WeatherDisplay:10.37,2013-01-13 22:23:00,
2013-01-13 17:25:00,67.1,60.7,30.06,South,191,0.0,0.0,80,0.00,CLR,,0.00,WeatherDisplay:10.37,2013-01-13 22:25:00,
2013-01-13 17:26:00,67.0,61.0,30.05,South,191,0.0,0.0,81,0.00,CLR,,0.00,WeatherDisplay:10.37,2013-01-13 22:26:00,
2013-01-13 17:27:00,66.9,60.9,30.05,South,191,0.0,0.0,81,0.00,CLR,,0.00,WeatherDisplay:10.37,2013-01-13 22:27:00,
2013-01-13 17:29:00,66.8,60.8,30.06,South,191,0.0,0.0,81,0.00,CLR,,0.00,WeatherDisplay:10.37,2013-01-13 22:29:00,
2013-01-13 17:31:00,66.6,60.9,30.06,South,191,0.0,0.0,82,0.00,CLR,,0.00,WeatherDisplay:10.37,2013-01-13 22:31:00,
2013-01-13 17:32:00,66.4,60.7,30.06,South,191,0.0,0.0,82,0.00,CLR,,0.00,WeatherDisplay:10.37,2013-01-13 22:32:00,
2013-01-13 17:38:00,66.0,60.7,30.06,South,191,0.0,0.0,83,0.00,CLR,,0.00,WeatherDisplay:10.37,2013-01-13 22:38:00,
2013-01-13 17:39:00,66.0,60.7,30.06,South,191,0.0,0.0,83,0.00,CLR,,0.00,WeatherDisplay:10.37,2013-01-13 22:39:00,
2013-01-13 17:43:00,65.7,60.4,30.05,SSW,192,0.0,0.0,83,0.00,CLR,,0.00,WeatherDisplay:10.37,2013-01-13 22:43:00,
2013-01-13 17:44:00,65.7,60.4,30.05,South,191,0.0,0.0,83,0.00,CLR,,0.00,WeatherDisplay:10.37,2013-01-13 22:44:00,
2013-01-13 17:48:00,65.3,60.3,30.05,SSW,192,0.0,0.0,84,0.00,CLR,,0.00,WeatherDisplay:10.37,2013-01-13 22:48:00,
2013-01-13 17:49:00,65.2,60.2,30.05,South,191,0.0,0.0,84,0.00,CLR,,0.00,WeatherDisplay:10.37,2013-01-13 22:49:00,
2013-01-13 17:54:00,64.8,60.2,30.05,SSW,192,0.0,0.0,85,0.00,CLR,,0.00,WeatherDisplay:10.37,2013-01-13 22:54:00,
2013-01-13 17:55:00,64.7,60.1,30.05,South,191,0.0,0.0,85,0.00,CLR,,0.00,WeatherDisplay:10.37,2013-01-13 22:55:00,
2013-01-13 17:59:00,64.4,60.1,30.05,South,191,0.0,0.0,86,0.00,CLR,,0.00,WeatherDisplay:10.37,2013-01-13 22:59:00,
2013-01-13 18:00:00,64.3,60.0,30.05,SSW,192,0.0,0.0,86,0.00,CLR,,0.00,WeatherDisplay:10.37,2013-01-13 23:00:00,
2013-01-13 18:04:00,63.9,60.0,30.05,South,191,0.0,0.0,87,0.00,FEW,,0.00,WeatherDisplay:10.37,2013-01-13 23:04:00,
2013-01-13 18:05:00,63.9,60.0,30.05,SSW,192,0.0,0.0,87,0.00,FEW,,0.00,WeatherDisplay:10.37,2013-01-13 23:05:00,
2013-01-13 18:09:00,63.5,59.9,30.06,South,191,0.0,0.0,88,0.00,FEW,,0.00,WeatherDisplay:10.37,2013-01-13 23:09:00,
2013-01-13 18:10:00,63.5,59.9,30.06,SSW,192,0.0,0.0,88,0.00,FEW,,0.00,WeatherDisplay:10.37,2013-01-13 23:10:00,
2013-01-13 18:14:00,63.2,59.9,30.06,South,191,0.0,0.0,89,0.00,FEW,,0.00,WeatherDisplay:10.37,2013-01-13 23:14:00,
2013-01-13 18:15:00,63.2,59.9,30.06,South,191,0.0,0.0,89,0.00,FEW,,0.00,WeatherDisplay:10.37,2013-01-13 23:15:00,
2013-01-13 18:19:00,63.0,59.7,30.06,South,191,0.0,0.0,89,0.00,FEW,,0.00,WeatherDisplay:10.37,2013-01-13 23:19:00,
2013-01-13 18:20:00,63.0,59.7,30.06,South,191,0.0,0.0,89,0.00,FEW,,0.00,WeatherDisplay:10.37,2013-01-13 23:20:00,
2013-01-13 18:21:00,63.0,59.7,30.06,South,191,0.0,0.0,89,0.00,FEW,,0.00,WeatherDisplay:10.37,2013-01-13 23:21:00,
2013-01-13 18:24:00,63.0,59.7,30.05,South,191,0.0,0.0,89,0.00,FEW,,0.00,WeatherDisplay:10.37,2013-01-13 23:24:00,
2013-01-13 18:25:00,62.9,59.6,30.05,SSW,192,0.0,0.0,89,0.00,FEW,,0.00,WeatherDisplay:10.37,2013-01-13 23:25:00,
2013-01-13 18:26:00,62.9,59.6,30.06,SSW,192,0.0,0.0,89,0.00,FEW,,0.00,WeatherDisplay:10.37,2013-01-13 23:26:00,
2013-01-13 18:30:00,62.8,59.5,30.06,South,191,0.0,0.0,89,0.00,FEW,,0.00,WeatherDisplay:10.37,2013-01-13 23:30:00,
2013-01-13 18:31:00,62.7,59.7,30.05,SSW,192,0.0,0.0,90,0.00,FEW,,0.00,WeatherDisplay:10.37,2013-01-13 23:31:00,
2013-01-13 18:35:00,62.4,59.4,30.05,SSW,192,0.0,0.0,90,0.00,FEW,,0.00,WeatherDisplay:10.37,2013-01-13 23:35:00,
2013-01-13 18:37:00,62.3,59.3,30.05,SSW,192,0.0,0.0,90,0.00,FEW,,0.00,WeatherDisplay:10.37,2013-01-13 23:37:00,
2013-01-13 18:40:00,62.2,59.5,30.05,SSW,192,0.0,0.0,91,0.00,FEW,,0.00,WeatherDisplay:10.37,2013-01-13 23:40:00,
2013-01-13 18:41:00,62.1,59.4,30.05,South,191,0.0,0.0,91,0.00,FEW,,0.00,WeatherDisplay:10.37,2013-01-13 23:41:00,
2013-01-13 18:42:00,62.1,59.4,30.05,SSW,192,0.0,0.0,91,0.00,FEW,,0.00,WeatherDisplay:10.37,2013-01-13 23:42:00,
2013-01-13 18:45:00,62.0,59.3,30.05,SSW,192,0.0,0.0,91,0.00,FEW,,0.00,WeatherDisplay:10.37,2013-01-13 23:45:00,
2013-01-13 18:46:00,62.0,59.3,30.05,South,191,0.0,0.0,91,0.00,FEW,,0.00,WeatherDisplay:10.37,2013-01-13 23:46:00,
2013-01-13 18:47:00,61.9,59.2,30.05,South,191,0.0,0.0,91,0.00,FEW,,0.00,WeatherDisplay:10.37,2013-01-13 23:47:00,
2013-01-13 18:50:00,61.7,59.0,30.05,South,191,0.0,0.0,91,0.00,FEW,,0.00,WeatherDisplay:10.37,2013-01-13 23:50:00,
2013-01-13 18:51:00,61.6,58.9,30.05,South,191,0.0,0.0,91,0.00,FEW,,0.00,WeatherDisplay:10.37,2013-01-13 23:51:00,
2013-01-13 18:53:00,61.5,58.8,30.05,SSW,192,0.0,0.0,91,0.00,FEW,,0.00,WeatherDisplay:10.37,2013-01-13 23:53:00,
2013-01-13 18:55:00,61.4,59.1,30.05,South,191,0.0,0.0,92,0.00,FEW,,0.00,WeatherDisplay:10.37,2013-01-13 23:55:00,
2013-01-13 18:56:00,61.3,59.0,30.05,South,191,0.0,0.0,92,0.00,FEW,,0.00,WeatherDisplay:10.37,2013-01-13 23:56:00,
2013-01-13 19:00:00,61.3,59.0,30.05,South,191,0.0,0.0,92,0.00,FEW,,0.00,WeatherDisplay:10.37,2013-01-14 00:00:00,
2013-01-13 19:01:00,61.2,58.9,30.05,SSW,192,0.0,0.0,92,0.00,CLR,,0.00,WeatherDisplay:10.37,2013-01-14 00:01:00,
2013-01-13 19:05:00,61.1,59.1,30.05,South,191,0.0,0.0,93,0.00,CLR,,0.00,WeatherDisplay:10.37,2013-01-14 00:05:00,
2013-01-13 19:06:00,61.0,59.0,30.05,South,191,0.0,0.0,93,0.00,CLR,,0.00,WeatherDisplay:10.37,2013-01-14 00:06:00,
2013-01-13 19:10:00,60.7,58.4,30.05,SSW,192,0.0,0.0,92,0.00,CLR,,0.00,WeatherDisplay:10.37,2013-01-14 00:10:00,
2013-01-13 19:11:00,60.7,58.7,30.05,South,191,0.0,0.0,93,0.00,CLR,,0.00,WeatherDisplay:10.37,2013-01-14 00:11:00,
2013-01-13 19:12:00,60.6,58.6,30.06,SSW,192,0.0,0.0,93,0.00,CLR,,0.00,WeatherDisplay:10.37,2013-01-14 00:12:00,
2013-01-13 19:15:00,60.5,58.5,30.06,South,191,0.0,0.0,93,0.00,CLR,,0.00,WeatherDisplay:10.37,2013-01-14 00:15:00,
2013-01-13 19:16:00,60.5,58.5,30.06,South,191,0.0,0.0,93,0.00,CLR,,0.00,WeatherDisplay:10.37,2013-01-14 00:16:00,
2013-01-13 19:17:00,60.4,58.4,30.05,South,191,0.0,0.0,93,0.00,CLR,,0.00,WeatherDisplay:10.37,2013-01-14 00:17:00,
2013-01-13 19:20:00,60.3,58.3,30.05,SSW,192,0.0,0.0,93,0.00,CLR,,0.00,WeatherDisplay:10.37,2013-01-14 00:20:00,
2013-01-13 19:22:00,60.3,58.3,30.05,South,191,0.0,0.0,93,0.00,CLR,,0.00,WeatherDisplay:10.37,2013-01-14 00:22:00,
2013-01-13 19:25:00,60.2,58.5,30.05,SSW,192,0.0,0.0,94,0.00,CLR,,0.00,WeatherDisplay:10.37,2013-01-14 00:25:00,
2013-01-13 19:27:00,60.1,58.4,30.05,South,191,0.0,0.0,94,0.00,CLR,,0.00,WeatherDisplay:10.37,2013-01-14 00:27:00,
2013-01-13 19:30:00,60.0,58.3,30.05,South,191,0.0,0.0,94,0.00,CLR,,0.00,WeatherDisplay:10.37,2013-01-14 00:30:00,
2013-01-13 19:32:00,59.9,58.2,30.05,South,191,0.0,0.0,94,0.00,CLR,,0.00,WeatherDisplay:10.37,2013-01-14 00:32:00,
2013-01-13 19:33:00,59.9,58.2,30.05,South,191,0.0,0.0,94,0.00,CLR,,0.00,WeatherDisplay:10.37,2013-01-14 00:33:00,
2013-01-13 19:35:00,59.7,58.0,30.05,SSW,192,0.0,0.0,94,0.00,CLR,,0.00,WeatherDisplay:10.37,2013-01-14 00:35:00,
2013-01-13 19:37:00,59.6,57.9,30.05,SSW,192,0.0,0.0,94,0.00,CLR,,0.00,WeatherDisplay:10.37,2013-01-14 00:37:00,
2013-01-13 19:38:00,59.6,57.9,30.05,South,191,0.0,0.0,94,0.00,CLR,,0.00,WeatherDisplay:10.37,2013-01-14 00:38:00,
2013-01-13 19:40:00,59.6,57.9,30.05,South,191,0.0,0.0,94,0.00,CLR,,0.00,WeatherDisplay:10.37,2013-01-14 00:40:00,
2013-01-13 19:43:00,59.5,57.8,30.05,South,191,0.0,0.0,94,0.00,CLR,,0.00,WeatherDisplay:10.37,2013-01-14 00:43:00,
2013-01-13 19:45:00,59.4,57.7,30.05,South,191,0.0,0.0,94,0.00,CLR,,0.00,WeatherDisplay:10.37,2013-01-14 00:45:00,
2013-01-13 19:48:00,59.4,57.7,30.05,South,191,0.0,0.0,94,0.00,CLR,,0.00,WeatherDisplay:10.37,2013-01-14 00:48:00,
2013-01-13 19:49:00,59.4,58.0,30.05,South,191,0.0,0.0,95,0.00,CLR,,0.00,WeatherDisplay:10.37,2013-01-14 00:49:00,
2013-01-13 19:50:00,59.4,58.0,30.05,South,191,0.0,0.0,95,0.00,CLR,,0.00,WeatherDisplay:10.37,2013-01-14 00:50:00,
2013-01-13 19:53:00,59.3,57.6,30.05,South,191,0.0,0.0,94,0.00,CLR,,0.00,WeatherDisplay:10.37,2013-01-14 00:53:00,
2013-01-13 19:54:00,59.3,57.6,30.05,SSW,192,0.0,0.0,94,0.00,CLR,,0.00,WeatherDisplay:10.37,2013-01-14 00:54:00,
2013-01-13 19:56:00,59.2,57.5,30.05,South,191,0.0,0.0,94,0.00,CLR,,0.00,WeatherDisplay:10.37,2013-01-14 00:56:00,
2013-01-13 19:59:00,59.1,57.4,30.05,South,191,0.0,0.0,94,0.00,CLR,,0.00,WeatherDisplay:10.37,2013-01-14 00:59:00,
2013-01-13 20:01:00,59.0,57.3,30.05,South,191,0.0,0.0,94,0.00,CLR,,0.00,WeatherDisplay:10.37,2013-01-14 01:01:00,
2013-01-13 20:04:00,58.9,57.5,30.05,South,191,0.0,0.0,95,0.00,CLR,,0.00,WeatherDisplay:10.37,2013-01-14 01:04:00,
2013-01-13 20:05:00,58.9,57.5,30.05,South,191,0.0,0.0,95,0.00,CLR,,0.00,WeatherDisplay:10.37,2013-01-14 01:05:00,
2013-01-13 20:07:00,58.8,57.4,30.04,South,191,0.0,0.0,95,0.00,CLR,,0.00,WeatherDisplay:10.37,2013-01-14 01:07:00,
2013-01-13 20:09:00,58.8,57.4,30.05,South,191,0.0,0.0,95,0.00,CLR,,0.00,WeatherDisplay:10.37,2013-01-14 01:09:00,
2013-01-13 20:10:00,58.7,57.3,30.04,South,191,0.0,0.0,95,0.00,CLR,,0.00,WeatherDisplay:10.37,2013-01-14 01:10:00,
2013-01-13 20:12:00,58.6,56.9,30.04,SSW,192,0.0,0.0,94,0.00,CLR,,0.00,WeatherDisplay:10.37,2013-01-14 01:12:00,
2013-01-13 20:14:00,58.5,57.1,30.04,SSW,192,0.0,0.0,95,0.00,CLR,,0.00,WeatherDisplay:10.37,2013-01-14 01:14:00,
2013-01-13 20:16:00,58.5,57.1,30.04,South,191,0.0,0.0,95,0.00,CLR,,0.00,WeatherDisplay:10.37,2013-01-14 01:16:00,
2013-01-13 20:17:00,58.5,57.1,30.04,South,191,0.0,0.0,95,0.00,CLR,,0.00,WeatherDisplay:10.37,2013-01-14 01:17:00,
2013-01-13 20:19:00,58.4,57.0,30.05,South,191,0.0,0.0,95,0.00,CLR,,0.00,WeatherDisplay:10.37,2013-01-14 01:19:00,
2013-01-13 20:20:00,58.4,57.0,30.05,South,191,0.0,0.0,95,0.00,CLR,,0.00,WeatherDisplay:10.37,2013-01-14 01:20:00,
2013-01-13 20:22:00,58.3,56.9,30.04,SSW,192,0.0,0.0,95,0.00,CLR,,0.00,WeatherDisplay:10.37,2013-01-14 01:22:00,
2013-01-13 20:23:00,58.4,57.0,30.04,SSW,192,0.0,0.0,95,0.00,CLR,,0.00,WeatherDisplay:10.37,2013-01-14 01:23:00,
2013-01-13 20:24:00,58.4,57.0,30.04,SSW,192,0.0,0.0,95,0.00,CLR,,0.00,WeatherDisplay:10.37,2013-01-14 01:24:00,
2013-01-13 20:25:00,58.4,57.0,30.04,South,191,0.0,0.0,95,0.00,CLR,,0.00,WeatherDisplay:10.37,2013-01-14 01:25:00,
2013-01-13 20:27:00,58.4,57.0,30.05,SSW,192,0.0,0.0,95,0.00,CLR,,0.00,WeatherDisplay:10.37,2013-01-14 01:27:00,
2013-01-13 20:28:00,58.4,57.0,30.05,South,191,0.0,0.0,95,0.00,CLR,,0.00,WeatherDisplay:10.37,2013-01-14 01:28:00,
2013-01-13 20:30:00,58.5,57.1,30.05,SSW,192,0.0,0.0,95,0.00,CLR,,0.00,WeatherDisplay:10.37,2013-01-14 01:30:00,
2013-01-13 20:31:00,58.4,57.0,30.05,South,191,0.0,0.0,95,0.00,CLR,,0.00,WeatherDisplay:10.37,2013-01-14 01:31:00,
2013-01-13 20:32:00,58.4,57.0,30.05,South,191,0.0,0.0,95,0.00,CLR,,0.00,WeatherDisplay:10.37,2013-01-14 01:32:00,
2013-01-13 20:33:00,58.4,57.0,30.05,South,191,0.0,0.0,95,0.00,CLR,,0.00,WeatherDisplay:10.37,2013-01-14 01:33:00,
2013-01-13 20:35:00,58.3,56.9,30.05,South,191,0.0,0.0,95,0.00,CLR,,0.00,WeatherDisplay:10.37,2013-01-14 01:35:00,
2013-01-13 20:36:00,58.3,56.9,30.05,South,191,0.0,0.0,95,0.00,CLR,,0.00,WeatherDisplay:10.37,2013-01-14 01:36:00,
2013-01-13 20:37:00,58.3,56.9,30.05,SSW,192,0.0,0.0,95,0.00,CLR,,0.00,WeatherDisplay:10.37,2013-01-14 01:37:00,
2013-01-13 20:38:00,58.2,56.8,30.05,South,191,0.0,0.0,95,0.00,CLR,,0.00,WeatherDisplay:10.37,2013-01-14 01:38:00,
2013-01-13 20:40:00,58.1,56.7,30.04,South,191,0.0,0.0,95,0.00,CLR,,0.00,WeatherDisplay:10.37,2013-01-14 01:40:00,
2013-01-13 20:41:00,58.1,56.7,30.04,South,191,0.0,0.0,95,0.00,CLR,,0.00,WeatherDisplay:10.37,2013-01-14 01:41:00,
2013-01-13 20:42:00,58.0,56.6,30.04,South,191,0.0,0.0,95,0.00,CLR,,0.00,WeatherDisplay:10.37,2013-01-14 01:42:00,
2013-01-13 20:44:00,57.9,56.5,30.04,South,191,0.0,0.0,95,0.00,CLR,,0.00,WeatherDisplay:10.37,2013-01-14 01:44:00,
2013-01-13 20:45:00,57.8,56.4,30.04,South,191,0.0,0.0,95,0.00,CLR,,0.00,WeatherDisplay:10.37,2013-01-14 01:45:00,
2013-01-13 20:46:00,57.8,56.4,30.04,SSW,192,0.0,0.0,95,0.00,CLR,,0.00,WeatherDisplay:10.37,2013-01-14 01:46:00,
2013-01-13 20:48:00,57.7,56.3,30.04,South,191,0.0,0.0,95,0.00,CLR,,0.00,WeatherDisplay:10.37,2013-01-14 01:48:00,
2013-01-13 20:49:00,57.7,56.3,30.04,SSW,192,0.0,0.0,95,0.00,CLR,,0.00,WeatherDisplay:10.37,2013-01-14 01:49:00,
2013-01-13 20:50:00,57.6,56.2,30.04,SSW,192,0.0,0.0,95,0.00,CLR,,0.00,WeatherDisplay:10.37,2013-01-14 01:50:00,
2013-01-13 20:51:00,57.6,56.2,30.04,South,191,0.0,0.0,95,0.00,CLR,,0.00,WeatherDisplay:10.37,2013-01-14 01:51:00,
2013-01-13 20:53:00,57.5,56.1,30.04,SSW,192,0.0,0.0,95,0.00,CLR,,0.00,WeatherDisplay:10.37,2013-01-14 01:53:00,
2013-01-13 20:54:00,57.4,56.0,30.04,SSW,192,0.0,0.0,95,0.00,CLR,,0.00,WeatherDisplay:10.37,2013-01-14 01:54:00,
2013-01-13 20:56:00,57.4,56.0,30.04,South,191,0.0,0.0,95,0.00,CLR,,0.00,WeatherDisplay:10.37,2013-01-14 01:56:00,
2013-01-13 20:57:00,57.4,56.0,30.04,South,191,0.0,0.0,95,0.00,CLR,,0.00,WeatherDisplay:10.37,2013-01-14 01:57:00,
2013-01-13 20:58:00,57.3,55.9,30.04,South,191,0.0,0.0,95,0.00,CLR,,0.00,WeatherDisplay:10.37,2013-01-14 01:58:00,
2013-01-13 20:59:00,57.3,55.9,30.04,SSW,192,0.0,0.0,95,0.00,CLR,,0.00,WeatherDisplay:10.37,2013-01-14 01:59:00,
2013-01-13 21:01:00,57.3,55.9,30.04,South,191,0.0,0.0,95,0.00,CLR,,0.00,WeatherDisplay:10.37,2013-01-14 02:01:00,
2013-01-13 21:02:00,57.2,55.8,30.04,South,191,0.0,0.0,95,0.00,CLR,,0.00,WeatherDisplay:10.37,2013-01-14 02:02:00,
2013-01-13 21:03:00,57.2,55.8,30.04,SSW,192,0.0,0.0,95,0.00,CLR,,0.00,WeatherDisplay:10.37,2013-01-14 02:03:00,
2013-01-13 21:04:00,57.2,55.8,30.03,SSW,192,0.0,0.0,95,0.00,CLR,,0.00,WeatherDisplay:10.37,2013-01-14 02:04:00,
2013-01-13 21:06:00,57.2,55.8,30.04,South,191,0.0,0.0,95,0.00,CLR,,0.00,WeatherDisplay:10.37,2013-01-14 02:06:00,
2013-01-13 21:07:00,57.1,55.7,30.04,South,191,0.0,0.0,95,0.00,CLR,,0.00,WeatherDisplay:10.37,2013-01-14 02:07:00,
2013-01-13 21:09:00,56.9,55.5,30.04,South,191,0.0,0.0,95,0.00,CLR,,0.00,WeatherDisplay:10.37,2013-01-14 02:09:00,
2013-01-13 21:10:00,56.9,55.5,30.04,South,191,0.0,0.0,95,0.00,CLR,,0.00,WeatherDisplay:10.37,2013-01-14 02:10:00,
2013-01-13 21:11:00,56.8,55.4,30.04,South,191,0.0,0.0,95,0.00,CLR,,0.00,WeatherDisplay:10.37,2013-01-14 02:11:00,
2013-01-13 21:13:00,56.8,55.4,30.04,SSW,192,0.0,0.0,95,0.00,CLR,,0.00,WeatherDisplay:10.37,2013-01-14 02:13:00,
2013-01-13 21:15:00,56.7,55.3,30.04,South,191,0.0,0.0,95,0.00,CLR,,0.00,WeatherDisplay:10.37,2013-01-14 02:15:00,
2013-01-13 21:17:00,56.7,55.3,30.04,South,191,0.0,0.0,95,0.00,CLR,,0.00,WeatherDisplay:10.37,2013-01-14 02:17:00,
2013-01-13 21:18:00,56.8,55.7,30.04,South,191,0.0,0.0,96,0.00,CLR,,0.00,WeatherDisplay:10.37,2013-01-14 02:18:00,
2013-01-13 21:20:00,56.8,55.7,30.04,South,190,0.0,0.0,96,0.00,CLR,,0.00,WeatherDisplay:10.37,2013-01-14 02:20:00,
2013-01-13 21:22:00,56.8,55.7,30.04,South,191,0.0,0.0,96,0.00,CLR,,0.00,WeatherDisplay:10.37,2013-01-14 02:22:00,
2013-01-13 21:23:00,56.8,55.7,30.04,South,191,0.0,0.0,96,0.00,CLR,,0.00,WeatherDisplay:10.37,2013-01-14 02:23:00,
2013-01-13 21:25:00,56.8,55.7,30.04,South,191,0.0,0.0,96,0.00,CLR,,0.00,WeatherDisplay:10.37,2013-01-14 02:25:00,
2013-01-13 21:27:00,56.9,55.8,30.04,South,191,0.0,0.0,96,0.00,CLR,,0.00,WeatherDisplay:10.37,2013-01-14 02:27:00,
2013-01-13 21:28:00,56.8,55.7,30.04,South,191,0.0,0.0,96,0.00,CLR,,0.00,WeatherDisplay:10.37,2013-01-14 02:28:00,
2013-01-13 21:30:00,56.8,55.7,30.04,SSW,192,0.0,0.0,96,0.00,CLR,,0.00,WeatherDisplay:10.37,2013-01-14 02:30:00,
2013-01-13 21:31:00,56.7,55.6,30.04,SSW,192,0.0,0.0,96,0.00,CLR,,0.00,WeatherDisplay:10.37,2013-01-14 02:31:00,
2013-01-13 21:32:00,56.6,55.5,30.05,South,191,0.0,0.0,96,0.00,CLR,,0.00,WeatherDisplay:10.37,2013-01-14 02:32:00,
2013-01-13 21:33:00,56.6,55.5,30.04,South,190,0.0,0.0,96,0.00,CLR,,0.00,WeatherDisplay:10.37,2013-01-14 02:33:00,
2013-01-13 21:35:00,56.7,55.6,30.05,South,191,0.0,0.0,96,0.00,CLR,,0.00,WeatherDisplay:10.37,2013-01-14 02:35:00,
2013-01-13 21:36:00,56.8,55.7,30.05,SSW,192,0.0,0.0,96,0.00,CLR,,0.00,WeatherDisplay:10.37,2013-01-14 02:36:00,
2013-01-13 21:37:00,56.9,55.8,30.05,South,191,0.0,0.0,96,0.00,CLR,,0.00,WeatherDisplay:10.37,2013-01-14 02:37:00,
2013-01-13 21:38:00,57.0,55.9,30.05,South,191,0.0,0.0,96,0.00,CLR,,0.00,WeatherDisplay:10.37,2013-01-14 02:38:00,
2013-01-13 21:40:00,57.0,55.9,30.05,South,191,0.0,0.0,96,0.00,CLR,,0.00,WeatherDisplay:10.37,2013-01-14 02:40:00,
2013-01-13 21:41:00,57.0,55.9,30.05,South,191,0.0,0.0,96,0.00,CLR,,0.00,WeatherDisplay:10.37,2013-01-14 02:41:00,
2013-01-13 21:43:00,57.0,55.9,30.05,South,190,0.0,0.0,96,0.00,CLR,,0.00,WeatherDisplay:10.37,2013-01-14 02:43:00,
2013-01-13 21:45:00,57.1,56.0,30.05,South,191,0.0,0.0,96,0.00,CLR,,0.00,WeatherDisplay:10.37,2013-01-14 02:45:00,
2013-01-13 21:46:00,57.2,56.1,30.05,SSW,192,0.0,0.0,96,0.00,CLR,,0.00,WeatherDisplay:10.37,2013-01-14 02:46:00,
2013-01-13 21:48:00,57.2,56.1,30.05,South,191,0.0,0.0,96,0.00,CLR,,0.00,WeatherDisplay:10.37,2013-01-14 02:48:00,
2013-01-13 21:49:00,57.2,56.1,30.05,South,190,0.0,0.0,96,0.00,CLR,,0.00,WeatherDisplay:10.37,2013-01-14 02:49:00,
2013-01-13 21:50:00,57.2,56.1,30.05,South,191,0.0,0.0,96,0.00,CLR,,0.00,WeatherDisplay:10.37,2013-01-14 02:50:00,
2013-01-13 21:52:00,57.2,56.1,30.05,South,191,0.0,0.0,96,0.00,CLR,,0.00,WeatherDisplay:10.37,2013-01-14 02:52:00,
2013-01-13 21:54:00,57.1,56.0,30.05,South,191,0.0,0.0,96,0.00,CLR,,0.00,WeatherDisplay:10.37,2013-01-14 02:54:00,
2013-01-13 21:55:00,57.0,55.9,30.05,South,191,0.0,0.0,96,0.00,CLR,,0.00,WeatherDisplay:10.37,2013-01-14 02:55:00,
2013-01-13 21:58:00,56.7,55.6,30.05,SSW,192,0.0,0.0,96,0.00,CLR,,0.00,WeatherDisplay:10.37,2013-01-14 02:58:00,
2013-01-13 21:59:00,56.7,55.6,30.05,SSW,192,0.0,0.0,96,0.00,CLR,,0.00,WeatherDisplay:10.37,2013-01-14 02:59:00,
2013-01-13 22:00:00,56.6,55.5,30.05,SSW,192,0.0,0.0,96,0.00,FEW,,0.00,WeatherDisplay:10.37,2013-01-14 03:00:00,
2013-01-13 22:03:00,56.4,55.3,30.05,South,191,0.0,0.0,96,0.00,FEW,,0.00,WeatherDisplay:10.37,2013-01-14 03:03:00,
2013-01-13 22:04:00,56.4,55.3,30.05,South,191,0.0,0.0,96,0.00,FEW,,0.00,WeatherDisplay:10.37,2013-01-14 03:04:00,
2013-01-13 22:05:00,56.4,55.3,30.05,South,191,0.0,0.0,96,0.00,FEW,,0.00,WeatherDisplay:10.37,2013-01-14 03:05:00,
2013-01-13 22:08:00,56.3,55.2,30.05,South,191,0.0,0.0,96,0.00,FEW,,0.00,WeatherDisplay:10.37,2013-01-14 03:08:00,
2013-01-13 22:09:00,56.3,55.2,30.05,South,191,0.0,0.0,96,0.00,FEW,,0.00,WeatherDisplay:10.37,2013-01-14 03:09:00,
2013-01-13 22:11:00,56.3,55.2,30.05,South,191,0.0,0.0,96,0.00,FEW,,0.00,WeatherDisplay:10.37,2013-01-14 03:11:00,
2013-01-13 22:13:00,56.3,55.2,30.05,South,191,0.0,0.0,96,0.00,FEW,,0.00,WeatherDisplay:10.37,2013-01-14 03:13:00,
2013-01-13 22:14:00,56.3,55.2,30.06,South,190,0.0,0.0,96,0.00,FEW,,0.00,WeatherDisplay:10.37,2013-01-14 03:14:00,
2013-01-13 22:16:00,56.3,55.2,30.06,SSW,192,0.0,0.0,96,0.00,FEW,,0.00,WeatherDisplay:10.37,2013-01-14 03:16:00,
2013-01-13 22:18:00,56.2,55.1,30.06,South,191,0.0,0.0,96,0.00,FEW,,0.00,WeatherDisplay:10.37,2013-01-14 03:18:00,
2013-01-13 22:19:00,56.1,55.0,30.06,South,190,0.0,0.0,96,0.00,FEW,,0.00,WeatherDisplay:10.37,2013-01-14 03:19:00,
2013-01-13 22:20:00,56.2,55.1,30.06,South,190,0.0,0.0,96,0.00,FEW,,0.00,WeatherDisplay:10.37,2013-01-14 03:20:00,
2013-01-13 22:21:00,56.1,55.0,30.06,South,190,0.0,0.0,96,0.00,FEW,,0.00,WeatherDisplay:10.37,2013-01-14 03:21:00,
2013-01-13 22:24:00,56.2,55.1,30.06,South,191,0.0,0.0,96,0.00,FEW,,0.00,WeatherDisplay:10.37,2013-01-14 03:24:00,
2013-01-13 22:25:00,56.2,55.1,30.06,South,191,0.0,0.0,96,0.00,FEW,,0.00,WeatherDisplay:10.37,2013-01-14 03:25:00,
2013-01-13 22:26:00,56.2,55.1,30.06,South,190,0.0,0.0,96,0.00,FEW,,0.00,WeatherDisplay:10.37,2013-01-14 03:26:00,
2013-01-13 22:29:00,56.3,55.2,30.06,South,191,0.0,0.0,96,0.00,FEW,,0.00,WeatherDisplay:10.37,2013-01-14 03:29:00,
2013-01-13 22:30:00,56.3,55.2,30.06,South,191,0.0,0.0,96,0.00,FEW,,0.00,WeatherDisplay:10.37,2013-01-14 03:30:00,
2013-01-13 22:31:00,56.3,55.2,30.06,South,191,0.0,0.0,96,0.00,FEW,,0.00,WeatherDisplay:10.37,2013-01-14 03:31:00,
2013-01-13 22:34:00,56.3,55.2,30.06,South,190,0.0,0.0,96,0.00,FEW,,0.00,WeatherDisplay:10.37,2013-01-14 03:34:00,
2013-01-13 22:35:00,56.3,55.2,30.06,South,191,0.0,0.0,96,0.00,FEW,,0.00,WeatherDisplay:10.37,2013-01-14 03:35:00,
2013-01-13 22:36:00,56.2,55.1,30.06,South,190,0.0,0.0,96,0.00,FEW,,0.00,WeatherDisplay:10.37,2013-01-14 03:36:00,
2013-01-13 22:40:00,56.3,55.2,30.06,SSW,192,0.0,0.0,96,0.00,FEW,,0.00,WeatherDisplay:10.37,2013-01-14 03:40:00,
2013-01-13 22:42:00,56.3,55.5,30.06,South,190,0.0,0.0,97,0.00,FEW,,0.00,WeatherDisplay:10.37,2013-01-14 03:42:00,
2013-01-13 22:45:00,56.2,55.1,30.05,South,191,0.0,0.0,96,0.00,FEW,,0.00,WeatherDisplay:10.37,2013-01-14 03:45:00,
2013-01-13 22:47:00,56.2,55.1,30.06,SSW,192,0.0,0.0,96,0.00,FEW,,0.00,WeatherDisplay:10.37,2013-01-14 03:47:00,
2013-01-13 22:50:00,56.2,55.1,30.06,South,191,0.0,0.0,96,0.00,FEW,,0.00,WeatherDisplay:10.37,2013-01-14 03:50:00,
2013-01-13 22:53:00,56.1,55.0,30.06,South,191,0.0,0.0,96,0.00,FEW,,0.00,WeatherDisplay:10.37,2013-01-14 03:53:00,
2013-01-13 22:55:00,56.0,54.9,30.06,South,191,0.0,0.0,96,0.00,FEW,,0.00,WeatherDisplay:10.37,2013-01-14 03:55:00,
2013-01-13 22:56:00,55.9,54.8,30.06,South,190,0.0,0.0,96,0.00,FEW,,0.00,WeatherDisplay:10.37,2013-01-14 03:56:00,
2013-01-13 22:58:00,55.9,54.8,30.06,South,190,0.0,0.0,96,0.00,FEW,,0.00,WeatherDisplay:10.37,2013-01-14 03:58:00,
2013-01-13 23:00:00,56.0,54.9,30.06,SSW,192,0.0,0.0,96,0.00,CLR,,0.00,WeatherDisplay:10.37,2013-01-14 04:00:00,
2013-01-13 23:01:00,56.1,55.0,30.06,South,191,0.0,0.0,96,0.00,CLR,,0.00,WeatherDisplay:10.37,2013-01-14 04:01:00,
2013-01-13 23:03:00,56.1,55.0,30.06,South,191,2.3,2.3,96,0.00,CLR,,0.00,WeatherDisplay:10.37,2013-01-14 04:03:00,
2013-01-13 23:06:00,56.3,55.5,30.06,South,191,0.0,0.0,97,0.00,CLR,,0.00,WeatherDisplay:10.37,2013-01-14 04:06:00,
2013-01-13 23:07:00,56.3,55.5,30.06,South,191,0.0,0.0,97,0.00,CLR,,0.00,WeatherDisplay:10.37,2013-01-14 04:07:00,
2013-01-13 23:08:00,56.4,55.6,30.06,South,191,0.0,0.0,97,0.00,CLR,,0.00,WeatherDisplay:10.37,2013-01-14 04:08:00,
2013-01-13 23:11:00,56.6,55.8,30.06,South,191,0.0,0.0,97,0.00,CLR,,0.00,WeatherDisplay:10.37,2013-01-14 04:11:00,
2013-01-13 23:12:00,56.7,55.9,30.06,South,191,0.0,0.0,97,0.00,CLR,,0.00,WeatherDisplay:10.37,2013-01-14 04:12:00,
2013-01-13 23:14:00,56.7,55.9,30.06,South,191,0.0,0.0,97,0.00,CLR,,0.00,WeatherDisplay:10.37,2013-01-14 04:14:00,
2013-01-13 23:16:00,56.8,56.0,30.06,South,191,0.0,0.0,97,0.00,CLR,,0.00,WeatherDisplay:10.37,2013-01-14 04:16:00,
2013-01-13 23:17:00,56.8,56.0,30.06,South,191,0.0,0.0,97,0.00,CLR,,0.00,WeatherDisplay:10.37,2013-01-14 04:17:00,
2013-01-13 23:19:00,56.8,56.0,30.06,South,191,0.0,0.0,97,0.00,CLR,,0.00,WeatherDisplay:10.37,2013-01-14 04:19:00,
2013-01-13 23:21:00,56.8,56.0,30.06,South,191,0.0,0.0,97,0.00,CLR,,0.00,WeatherDisplay:10.37,2013-01-14 04:21:00,
2013-01-13 23:22:00,56.8,56.0,30.06,South,191,0.0,0.0,97,0.00,CLR,,0.00,WeatherDisplay:10.37,2013-01-14 04:22:00,
2013-01-13 23:23:00,56.9,56.1,30.06,South,191,0.0,0.0,97,0.00,CLR,,0.00,WeatherDisplay:10.37,2013-01-14 04:23:00,
2013-01-13 23:24:00,57.0,56.2,30.06,South,191,0.0,0.0,97,0.00,CLR,,0.00,WeatherDisplay:10.37,2013-01-14 04:24:00,
2013-01-13 23:26:00,57.1,56.3,30.06,South,191,0.0,0.0,97,0.00,CLR,,0.00,WeatherDisplay:10.37,2013-01-14 04:26:00,
2013-01-13 23:27:00,57.1,56.3,30.06,South,191,0.0,0.0,97,0.00,CLR,,0.00,WeatherDisplay:10.37,2013-01-14 04:27:00,
2013-01-13 23:29:00,57.2,56.4,30.06,SSW,192,0.0,0.0,97,0.00,CLR,,0.00,WeatherDisplay:10.37,2013-01-14 04:29:00,
2013-01-13 23:32:00,57.4,56.6,30.06,South,191,0.0,0.0,97,0.00,CLR,,0.00,WeatherDisplay:10.37,2013-01-14 04:32:00,
2013-01-13 23:34:00,57.6,56.8,30.06,South,191,0.0,0.0,97,0.00,CLR,,0.00,WeatherDisplay:10.37,2013-01-14 04:34:00,
2013-01-13 23:37:00,57.6,56.8,30.06,South,191,0.0,0.0,97,0.00,CLR,,0.00,WeatherDisplay:10.37,2013-01-14 04:37:00,
2013-01-13 23:39:00,57.8,57.0,30.06,South,191,0.0,0.0,97,0.00,CLR,,0.00,WeatherDisplay:10.37,2013-01-14 04:39:00,
2013-01-13 23:40:00,57.8,57.0,30.06,South,191,0.0,0.0,97,0.00,CLR,,0.00,WeatherDisplay:10.37,2013-01-14 04:40:00,
2013-01-13 23:43:00,57.9,57.1,30.06,South,191,0.0,0.0,97,0.00,CLR,,0.00,WeatherDisplay:10.37,2013-01-14 04:43:00,
2013-01-13 23:44:00,57.9,57.1,30.06,South,191,0.0,0.0,97,0.00,CLR,,0.00,WeatherDisplay:10.37,2013-01-14 04:44:00,
2013-01-13 23:46:00,57.9,57.1,30.06,South,191,0.0,0.0,97,0.00,CLR,,0.00,WeatherDisplay:10.37,2013-01-14 04:46:00,
2013-01-13 23:48:00,57.9,57.1,30.06,South,191,0.0,0.0,97,0.00,CLR,,0.00,WeatherDisplay:10.37,2013-01-14 04:48:00,
2013-01-13 23:49:00,58.0,57.2,30.06,South,191,0.0,0.0,97,0.00,CLR,,0.00,WeatherDisplay:10.37,2013-01-14 04:49:00,
2013-01-13 23:51:00,58.1,57.3,30.06,South,191,0.0,0.0,97,0.00,CLR,,0.00,WeatherDisplay:10.37,2013-01-14 04:51:00,
2013-01-13 23:53:00,58.2,57.4,30.05,South,191,0.0,0.0,97,0.00,CLR,,0.00,WeatherDisplay:10.37,2013-01-14 04:53:00,
2013-01-13 23:54:00,58.1,57.3,30.05,South,191,0.0,0.0,97,0.00,CLR,,0.00,WeatherDisplay:10.37,2013-01-14 04:54:00,
2013-01-13 23:56:00,58.0,57.2,30.05,South,191,0.0,0.0,97,0.00,CLR,,0.00,WeatherDisplay:10.37,2013-01-14 04:56:00,
2013-01-13 23:58:00,58.0,57.2,30.06,South,191,0.0,0.0,97,0.00,CLR,,0.00,WeatherDisplay:10.37,2013-01-14 04:58:00,